Observation data for Dell City 1N on 05/26/2020      Previous  Date       Current Mesonet Observations  Soil Data  Daily Summary Page  Observations in Plain Language
KDC1 260500Z 04006KT 18/08 A3006 RMK A01 T01840077  RH  050%=      5-min Rain = 0
KDC1 260501Z 03005KT 18/08 A3006 RMK A01 T01840077  RH  050%=      5-min Rain = 0
KDC1 260502Z 02004KT 18/08 A3006 RMK A01 T01840077  RH  050%=      5-min Rain = 0
KDC1 260503Z 02003KT 18/08 A3006 RMK A01 T01830077  RH  050%=      5-min Rain = 0
KDC1 260504Z 01003KT 18/08 A3006 RMK A01 T01820077  RH  050%=      5-min Rain = 0
KDC1 260505Z 35003KT 18/08 A3006 RMK A01 T01810077  RH  051%=      5-min Rain = 0
KDC1 260506Z 34002KT 18/08 A3006 RMK A01 T01800077  RH  051%=      5-min Rain = 0
KDC1 260507Z 33003KT 18/08 A3006 RMK A01 T01780076  RH  051%=      5-min Rain = 0
KDC1 260508Z 33002KT 18/08 A3006 RMK A01 T01750076  RH  052%=      5-min Rain = 0
KDC1 260509Z 33003KT 17/08 A3006 RMK A01 T01710078  RH  054%=      5-min Rain = 0
KDC1 260510Z 33003KT 17/08 A3006 RMK A01 T01690078  RH  055%=      5-min Rain = 0
KDC1 260511Z 32002KT 17/08 A3006 RMK A01 T01670078  RH  056%=      5-min Rain = 0
KDC1 260512Z 32001KT 17/08 A3006 RMK A01 T01670079  RH  056%=      5-min Rain = 0
KDC1 260513Z 32001KT 17/08 A3006 RMK A01 T01670079  RH  056%=      5-min Rain = 0
KDC1 260514Z 30001KT 17/08 A3006 RMK A01 T01660079  RH  056%=      5-min Rain = 0
KDC1 260515Z 27001KT 17/08 A3006 RMK A01 T01650079  RH  057%=      5-min Rain = 0
KDC1 260516Z 27001KT 17/08 A3006 RMK A01 T01650080  RH  057%=      5-min Rain = 0
KDC1 260517Z 24001KT 17/08 A3006 RMK A01 T01650080  RH  057%=      5-min Rain = 0
KDC1 260518Z 23001KT 16/08 A3006 RMK A01 T01640080  RH  057%=      5-min Rain = 0
KDC1 260519Z 21001KT 17/08 A3006 RMK A01 T01650080  RH  057%=      5-min Rain = 0
KDC1 260520Z 20002KT 17/08 A3006 RMK A01 T01650080  RH  057%=      5-min Rain = 0
KDC1 260521Z 20003KT 17/08 A3006 RMK A01 T01660082  RH  057%=      5-min Rain = 0
KDC1 260522Z 21003KT 17/08 A3006 RMK A01 T01670082  RH  057%=      5-min Rain = 0
KDC1 260523Z 21003KT 17/08 A3006 RMK A01 T01680082  RH  057%=      5-min Rain = 0
KDC1 260524Z 24003KT 17/08 A3006 RMK A01 T01680082  RH  057%=      5-min Rain = 0
KDC1 260525Z 28001KT 17/08 A3006 RMK A01 T01680081  RH  057%=      5-min Rain = 0
KDC1 260526Z 29002KT 17/08 A3006 RMK A01 T01680081  RH  057%=      5-min Rain = 0
KDC1 260527Z 36002KT 17/08 A3006 RMK A01 T01700079  RH  055%=      5-min Rain = 0
KDC1 260528Z 03002KT 17/08 A3006 RMK A01 T01730078  RH  054%=      5-min Rain = 0
KDC1 260529Z 36003KT 18/08 A3006 RMK A01 T01750078  RH  053%=      5-min Rain = 0
KDC1 260530Z 31002KT 18/08 A3006 RMK A01 T01760078  RH  053%=      5-min Rain = 0
KDC1 260531Z 36003KT 18/08 A3006 RMK A01 T01770080  RH  053%=      5-min Rain = 0
KDC1 260532Z 35002KT 18/08 A3006 RMK A01 T01770079  RH  053%=      5-min Rain = 0
KDC1 260533Z 32001KT 18/08 A3006 RMK A01 T01770078  RH  052%=      5-min Rain = 0
KDC1 260534Z 33002KT 18/08 A3006 RMK A01 T01770078  RH  052%=      5-min Rain = 0
KDC1 260535Z 31002KT 18/08 A3006 RMK A01 T01770079  RH  052%=      5-min Rain = 0
KDC1 260536Z 34002KT 18/08 A3006 RMK A01 T01770078  RH  052%=      5-min Rain = 0
KDC1 260537Z 30001KT 18/08 A3006 RMK A01 T01770080  RH  053%=      5-min Rain = 0
KDC1 260538Z 26002KT 18/08 A3006 RMK A01 T01760079  RH  053%=      5-min Rain = 0
KDC1 260539Z 26002KT 18/08 A3006 RMK A01 T01750079  RH  053%=      5-min Rain = 0
KDC1 260540Z 26003KT 17/08 A3006 RMK A01 T01740079  RH  054%=      5-min Rain = 0
KDC1 260541Z 25003KT 17/08 A3006 RMK A01 T01730079  RH  054%=      5-min Rain = 0
KDC1 260542Z 26003KT 17/08 A3006 RMK A01 T01720080  RH  055%=      5-min Rain = 0
KDC1 260543Z 24003KT 17/08 A3006 RMK A01 T01720081  RH  055%=      5-min Rain = 0
KDC1 260544Z 27003KT 17/08 A3006 RMK A01 T01720082  RH  055%=      5-min Rain = 0
KDC1 260545Z 27003KT 17/08 A3006 RMK A01 T01710082  RH  056%=      5-min Rain = 0
KDC1 260546Z 29003KT 17/08 A3006 RMK A01 T01710082  RH  056%=      5-min Rain = 0
KDC1 260547Z 27003KT 17/08 A3006 RMK A01 T01710081  RH  055%=      5-min Rain = 0
KDC1 260548Z 29003KT 17/08 A3006 RMK A01 T01710081  RH  055%=      5-min Rain = 0
KDC1 260549Z 29002KT 17/08 A3006 RMK A01 T01710080  RH  055%=      5-min Rain = 0
KDC1 260550Z 30003KT 17/08 A3006 RMK A01 T01720080  RH  055%=      5-min Rain = 0
KDC1 260551Z 30003KT 17/08 A3006 RMK A01 T01720080  RH  055%=      5-min Rain = 0
KDC1 260552Z 30003KT 17/08 A3006 RMK A01 T01730080  RH  054%=      5-min Rain = 0
KDC1 260553Z 30004KT 17/08 A3006 RMK A01 T01720081  RH  055%=      5-min Rain = 0
KDC1 260554Z 31004KT 17/08 A3006 RMK A01 T01710080  RH  055%=      5-min Rain = 0
KDC1 260555Z 32005KT 17/08 A3006 RMK A01 T01700080  RH  055%=      5-min Rain = 0
KDC1 260556Z 32005KT 17/08 A3006 RMK A01 T01710080  RH  055%=      5-min Rain = 0
KDC1 260557Z 31005KT 17/08 A3006 RMK A01 T01710080  RH  055%=      5-min Rain = 0
KDC1 260558Z 31004KT 17/08 A3007 RMK A01 T01690081  RH  056%=      5-min Rain = 0
KDC1 260559Z 32005KT 17/08 A3007 RMK A01 T01670080  RH  057%=      5-min Rain = 0
KDC1 260600Z 32004KT 17/08 A3007 RMK A01 T01660080  RH  057%=      5-min Rain = 0
KDC1 260601Z 32004KT 17/08 A3007 RMK A01 T01650080  RH  057%=      5-min Rain = 0
KDC1 260602Z 32005KT 16/08 A3007 RMK A01 T01640080  RH  057%=      5-min Rain = 0
KDC1 260603Z 33005KT 16/08 A3006 RMK A01 T01640080  RH  057%=      5-min Rain = 0
KDC1 260604Z 34005KT 16/08 A3006 RMK A01 T01640080  RH  057%=      5-min Rain = 0
KDC1 260605Z 34005KT 16/08 A3006 RMK A01 T01630080  RH  058%=      5-min Rain = 0
KDC1 260606Z 34005KT 16/08 A3006 RMK A01 T01630080  RH  058%=      5-min Rain = 0
KDC1 260607Z 33006KT 16/08 A3006 RMK A01 T01620080  RH  058%=      5-min Rain = 0
KDC1 260608Z 33006KT 16/08 A3006 RMK A01 T01620080  RH  058%=      5-min Rain = 0
KDC1 260609Z 33006KT 16/08 A3006 RMK A01 T01620080  RH  058%=      5-min Rain = 0
KDC1 260610Z 33006KT 16/08 A3006 RMK A01 T01630080  RH  058%=      5-min Rain = 0
KDC1 260611Z 33005KT 16/08 A3006 RMK A01 T01630080  RH  058%=      5-min Rain = 0
KDC1 260612Z 34006KT 16/08 A3006 RMK A01 T01630080  RH  058%=      5-min Rain = 0
KDC1 260613Z 34005KT 16/08 A3006 RMK A01 T01620081  RH  059%=      5-min Rain = 0
KDC1 260614Z 34005KT 16/08 A3006 RMK A01 T01610082  RH  059%=      5-min Rain = 0
KDC1 260615Z 35005KT 16/08 A3006 RMK A01 T01600081  RH  059%=      5-min Rain = 0
KDC1 260616Z 35006KT 16/08 A3006 RMK A01 T01600081  RH  059%=      5-min Rain = 0
KDC1 260617Z 34005KT 16/08 A3006 RMK A01 T01610080  RH  059%=      5-min Rain = 0
KDC1 260618Z 34005KT 16/08 A3006 RMK A01 T01620080  RH  058%=      5-min Rain = 0
KDC1 260619Z 34005KT 16/08 A3006 RMK A01 T01640080  RH  058%=      5-min Rain = 0
KDC1 260620Z 34005KT 17/08 A3006 RMK A01 T01650080  RH  057%=      5-min Rain = 0
KDC1 260621Z 34005KT 17/08 A3006 RMK A01 T01650080  RH  057%=      5-min Rain = 0
KDC1 260622Z 34005KT 17/08 A3006 RMK A01 T01650081  RH  057%=      5-min Rain = 0
KDC1 260623Z 34005KT 16/08 A3006 RMK A01 T01640081  RH  058%=      5-min Rain = 0
KDC1 260624Z 34005KT 16/08 A3006 RMK A01 T01630081  RH  058%=      5-min Rain = 0
KDC1 260625Z 34006KT 16/08 A3006 RMK A01 T01620081  RH  059%=      5-min Rain = 0
KDC1 260626Z 34005KT 16/08 A3006 RMK A01 T01610081  RH  059%=      5-min Rain = 0
KDC1 260627Z 34005KT 16/08 A3006 RMK A01 T01600081  RH  060%=      5-min Rain = 0
KDC1 260628Z 34006KT 16/08 A3006 RMK A01 T01590081  RH  060%=      5-min Rain = 0
KDC1 260629Z 34005KT 16/08 A3006 RMK A01 T01580081  RH  060%=      5-min Rain = 0
KDC1 260630Z 34006KT 16/08 A3006 RMK A01 T01590081  RH  060%=      5-min Rain = 0
KDC1 260631Z 34006KT 16/08 A3006 RMK A01 T01600081  RH  060%=      5-min Rain = 0
KDC1 260632Z 35006KT 16/08 A3006 RMK A01 T01610081  RH  059%=      5-min Rain = 0
KDC1 260633Z 35006KT 16/08 A3006 RMK A01 T01620080  RH  058%=      5-min Rain = 0
KDC1 260634Z 34007KT 16/08 A3006 RMK A01 T01630080  RH  058%=      5-min Rain = 0
KDC1 260635Z 34007KT 17/08 A3006 RMK A01 T01650080  RH  057%=      5-min Rain = 0
KDC1 260636Z 34005KT 17/08 A3006 RMK A01 T01670080  RH  056%=      5-min Rain = 0
KDC1 260637Z 35005KT 17/08 A3006 RMK A01 T01680080  RH  056%=      5-min Rain = 0
KDC1 260638Z 35005KT 17/08 A3006 RMK A01 T01680081  RH  056%=      5-min Rain = 0
KDC1 260639Z 35006KT 17/08 A3006 RMK A01 T01680081  RH  056%=      5-min Rain = 0
KDC1 260640Z 34006KT 17/08 A3006 RMK A01 T01680080  RH  056%=      5-min Rain = 0
KDC1 260641Z 33005KT 17/08 A3006 RMK A01 T01680080  RH  056%=      5-min Rain = 0
KDC1 260642Z 34005KT 17/08 A3006 RMK A01 T01680080  RH  056%=      5-min Rain = 0
KDC1 260643Z 34005KT 17/08 A3006 RMK A01 T01670081  RH  057%=      5-min Rain = 0
KDC1 260644Z 34005KT 17/08 A3006 RMK A01 T01650081  RH  058%=      5-min Rain = 0
KDC1 260645Z 34005KT 16/08 A3006 RMK A01 T01630081  RH  058%=      5-min Rain = 0
KDC1 260646Z 34005KT 16/08 A3006 RMK A01 T01620081  RH  059%=      5-min Rain = 0
KDC1 260647Z 33005KT 16/08 A3006 RMK A01 T01610081  RH  059%=      5-min Rain = 0
KDC1 260648Z 33005KT 16/08 A3006 RMK A01 T01600082  RH  060%=      5-min Rain = 0
KDC1 260649Z 33005KT 16/08 A3006 RMK A01 T01590081  RH  060%=      5-min Rain = 0
KDC1 260650Z 34005KT 16/08 A3006 RMK A01 T01590082  RH  060%=      5-min Rain = 0
KDC1 260651Z 34005KT 16/08 A3006 RMK A01 T01580082  RH  060%=      5-min Rain = 0
KDC1 260652Z 34005KT 16/08 A3006 RMK A01 T01570082  RH  061%=      5-min Rain = 0
KDC1 260653Z 34005KT 16/08 A3006 RMK A01 T01560082  RH  061%=      5-min Rain = 0
KDC1 260654Z 33006KT 16/08 A3006 RMK A01 T01550082  RH  062%=      5-min Rain = 0
KDC1 260655Z 33006KT 15/08 A3006 RMK A01 T01540083  RH  062%=      5-min Rain = 0
KDC1 260656Z 34006KT 15/08 A3006 RMK A01 T01530083  RH  063%=      5-min Rain = 0
KDC1 260657Z 34006KT 15/08 A3006 RMK A01 T01520082  RH  063%=      5-min Rain = 0
KDC1 260658Z 34006KT 15/08 A3006 RMK A01 T01500082  RH  064%=      5-min Rain = 0
KDC1 260659Z 33007KT 15/08 A3006 RMK A01 T01490082  RH  064%=      5-min Rain = 0
KDC1 260700Z 33007KT 15/08 A3006 RMK A01 T01490082  RH  064%=      5-min Rain = 0
KDC1 260701Z 33007KT 15/08 A3006 RMK A01 T01490082  RH  064%=      5-min Rain = 0
KDC1 260702Z 33007KT 15/08 A3006 RMK A01 T01490081  RH  064%=      5-min Rain = 0
KDC1 260703Z 33007KT 15/08 A3006 RMK A01 T01490081  RH  064%=      5-min Rain = 0
KDC1 260704Z 34007KT 15/08 A3006 RMK A01 T01490081  RH  064%=      5-min Rain = 0
KDC1 260705Z 34007KT 15/08 A3006 RMK A01 T01500080  RH  063%=      5-min Rain = 0
KDC1 260706Z 34006KT 15/08 A3006 RMK A01 T01520080  RH  062%=      5-min Rain = 0
KDC1 260707Z 33007KT 15/08 A3006 RMK A01 T01540080  RH  061%=      5-min Rain = 0
KDC1 260708Z 33006KT 16/08 A3006 RMK A01 T01550080  RH  061%=      5-min Rain = 0
KDC1 260709Z 33007KT 16/08 A3006 RMK A01 T01550080  RH  061%=      5-min Rain = 0
KDC1 260710Z 33006KT 16/08 A3006 RMK A01 T01550080  RH  061%=      5-min Rain = 0
KDC1 260711Z 33006KT 15/08 A3006 RMK A01 T01530080  RH  061%=      5-min Rain = 0
KDC1 260712Z 34006KT 15/08 A3006 RMK A01 T01520080  RH  062%=      5-min Rain = 0
KDC1 260713Z 34006KT 15/08 A3006 RMK A01 T01510080  RH  062%=      5-min Rain = 0
KDC1 260714Z 34006KT 15/08 A3006 RMK A01 T01510080  RH  063%=      5-min Rain = 0
KDC1 260715Z 34005KT 15/08 A3006 RMK A01 T01510080  RH  063%=      5-min Rain = 0
KDC1 260716Z 34005KT 15/08 A3006 RMK A01 T01510080  RH  062%=      5-min Rain = 0
KDC1 260717Z 34005KT 15/08 A3006 RMK A01 T01510080  RH  063%=      5-min Rain = 0
KDC1 260718Z 34005KT 15/08 A3006 RMK A01 T01510080  RH  063%=      5-min Rain = 0
KDC1 260719Z 34005KT 15/08 A3006 RMK A01 T01510080  RH  063%=      5-min Rain = 0
KDC1 260720Z 34005KT 15/08 A3006 RMK A01 T01510080  RH  062%=      5-min Rain = 0
KDC1 260721Z 34005KT 15/08 A3006 RMK A01 T01510081  RH  063%=      5-min Rain = 0
KDC1 260722Z 34004KT 15/08 A3006 RMK A01 T01510080  RH  063%=      5-min Rain = 0
KDC1 260723Z 34004KT 15/08 A3006 RMK A01 T01500081  RH  063%=      5-min Rain = 0
KDC1 260724Z 33004KT 15/08 A3006 RMK A01 T01500081  RH  063%=      5-min Rain = 0
KDC1 260725Z 34004KT 15/08 A3006 RMK A01 T01490081  RH  064%=      5-min Rain = 0
KDC1 260726Z 34005KT 15/08 A3006 RMK A01 T01470080  RH  064%=      5-min Rain = 0
KDC1 260727Z 35005KT 15/08 A3006 RMK A01 T01460080  RH  065%=      5-min Rain = 0
KDC1 260728Z 34004KT 15/08 A3006 RMK A01 T01450080  RH  065%=      5-min Rain = 0
KDC1 260729Z 34005KT 15/08 A3006 RMK A01 T01450080  RH  065%=      5-min Rain = 0
KDC1 260730Z 34005KT 15/08 A3006 RMK A01 T01450081  RH  065%=      5-min Rain = 0
KDC1 260731Z 34005KT 15/08 A3006 RMK A01 T01450081  RH  065%=      5-min Rain = 0
KDC1 260732Z 34005KT 15/08 A3006 RMK A01 T01460080  RH  065%=      5-min Rain = 0
KDC1 260733Z 33005KT 15/08 A3006 RMK A01 T01460080  RH  065%=      5-min Rain = 0
KDC1 260734Z 34005KT 15/08 A3006 RMK A01 T01460080  RH  065%=      5-min Rain = 0
KDC1 260735Z 34004KT 15/08 A3006 RMK A01 T01460080  RH  065%=      5-min Rain = 0
KDC1 260736Z 34005KT 15/08 A3006 RMK A01 T01460080  RH  065%=      5-min Rain = 0
KDC1 260737Z 35005KT 15/08 A3006 RMK A01 T01460080  RH  065%=      5-min Rain = 0
KDC1 260738Z 35006KT 15/08 A3006 RMK A01 T01460080  RH  065%=      5-min Rain = 0
KDC1 260739Z 35006KT 15/08 A3006 RMK A01 T01460080  RH  065%=      5-min Rain = 0
KDC1 260740Z 35005KT 15/08 A3006 RMK A01 T01470080  RH  064%=      5-min Rain = 0
KDC1 260741Z 34005KT 15/08 A3006 RMK A01 T01490080  RH  063%=      5-min Rain = 0
KDC1 260742Z 35005KT 15/08 A3006 RMK A01 T01520080  RH  062%=      5-min Rain = 0
KDC1 260743Z 34004KT 15/08 A3006 RMK A01 T01540079  RH  061%=      5-min Rain = 0
KDC1 260744Z 34005KT 16/08 A3006 RMK A01 T01560080  RH  060%=      5-min Rain = 0
KDC1 260745Z 34004KT 16/08 A3006 RMK A01 T01570080  RH  060%=      5-min Rain = 0
KDC1 260746Z 34004KT 16/08 A3006 RMK A01 T01570080  RH  060%=      5-min Rain = 0
KDC1 260747Z 34004KT 16/08 A3006 RMK A01 T01570080  RH  060%=      5-min Rain = 0
KDC1 260748Z 34004KT 16/08 A3006 RMK A01 T01560080  RH  061%=      5-min Rain = 0
KDC1 260749Z 34004KT 16/08 A3006 RMK A01 T01550080  RH  061%=      5-min Rain = 0
KDC1 260750Z 33004KT 15/08 A3006 RMK A01 T01540080  RH  061%=      5-min Rain = 0
KDC1 260751Z 33004KT 15/08 A3006 RMK A01 T01530081  RH  062%=      5-min Rain = 0
KDC1 260752Z 34004KT 15/08 A3006 RMK A01 T01520080  RH  062%=      5-min Rain = 0
KDC1 260753Z 34004KT 15/08 A3006 RMK A01 T01520080  RH  062%=      5-min Rain = 0
KDC1 260754Z 35004KT 15/08 A3006 RMK A01 T01520080  RH  062%=      5-min Rain = 0
KDC1 260755Z 35004KT 15/08 A3006 RMK A01 T01510080  RH  062%=      5-min Rain = 0
KDC1 260756Z 35004KT 15/08 A3006 RMK A01 T01510080  RH  062%=      5-min Rain = 0
KDC1 260757Z 35004KT 15/08 A3006 RMK A01 T01510080  RH  062%=      5-min Rain = 0
KDC1 260758Z 35004KT 15/08 A3006 RMK A01 T01510080  RH  062%=      5-min Rain = 0
KDC1 260759Z 35004KT 15/08 A3006 RMK A01 T01510080  RH  062%=      5-min Rain = 0
KDC1 260800Z 35004KT 15/08 A3006 RMK A01 T01510080  RH  062%=      5-min Rain = 0
KDC1 260801Z 34004KT 15/08 A3006 RMK A01 T01510079  RH  062%=      5-min Rain = 0
KDC1 260802Z 34004KT 15/08 A3006 RMK A01 T01510079  RH  062%=      5-min Rain = 0
KDC1 260803Z 33004KT 15/08 A3006 RMK A01 T01510079  RH  062%=      5-min Rain = 0
KDC1 260804Z 34004KT 15/08 A3006 RMK A01 T01510079  RH  062%=      5-min Rain = 0
KDC1 260805Z 34004KT 15/08 A3006 RMK A01 T01500079  RH  062%=      5-min Rain = 0
KDC1 260806Z 34004KT 15/08 A3007 RMK A01 T01490079  RH  063%=      5-min Rain = 0
KDC1 260807Z 34004KT 15/08 A3007 RMK A01 T01470079  RH  064%=      5-min Rain = 0
KDC1 260808Z 34004KT 15/08 A3007 RMK A01 T01460079  RH  064%=      5-min Rain = 0
KDC1 260809Z 33003KT 15/08 A3007 RMK A01 T01450078  RH  064%=      5-min Rain = 0
KDC1 260810Z 32003KT 14/08 A3007 RMK A01 T01440079  RH  065%=      5-min Rain = 0
KDC1 260811Z 32003KT 14/08 A3007 RMK A01 T01430080  RH  066%=      5-min Rain = 0
KDC1 260812Z 32003KT 14/08 A3007 RMK A01 T01440079  RH  065%=      5-min Rain = 0
KDC1 260813Z 31003KT 15/08 A3007 RMK A01 T01450079  RH  065%=      5-min Rain = 0
KDC1 260814Z 31003KT 15/08 A3007 RMK A01 T01460081  RH  065%=      5-min Rain = 0
KDC1 260815Z 30003KT 15/08 A3007 RMK A01 T01460083  RH  066%=      5-min Rain = 0
KDC1 260816Z 28003KT 15/08 A3007 RMK A01 T01470083  RH  066%=      5-min Rain = 0
KDC1 260817Z 27003KT 15/08 A3007 RMK A01 T01470083  RH  065%=      5-min Rain = 0
KDC1 260818Z 28003KT 15/08 A3007 RMK A01 T01480083  RH  065%=      5-min Rain = 0
KDC1 260819Z 27003KT 15/08 A3007 RMK A01 T01480083  RH  065%=      5-min Rain = 0
KDC1 260820Z 28004KT 15/08 A3007 RMK A01 T01480084  RH  066%=      5-min Rain = 0
KDC1 260821Z 29003KT 15/08 A3007 RMK A01 T01470084  RH  066%=      5-min Rain = 0
KDC1 260822Z 28003KT 15/08 A3007 RMK A01 T01480083  RH  065%=      5-min Rain = 0
KDC1 260823Z 28003KT 15/08 A3007 RMK A01 T01480083  RH  065%=      5-min Rain = 0
KDC1 260824Z 27003KT 15/08 A3007 RMK A01 T01490083  RH  065%=      5-min Rain = 0
KDC1 260825Z 27003KT 15/08 A3007 RMK A01 T01490083  RH  065%=      5-min Rain = 0
KDC1 260826Z 28004KT 15/08 A3007 RMK A01 T01490084  RH  065%=      5-min Rain = 0
KDC1 260827Z 29004KT 15/08 A3007 RMK A01 T01480084  RH  065%=      5-min Rain = 0
KDC1 260828Z 30004KT 15/08 A3007 RMK A01 T01470083  RH  065%=      5-min Rain = 0
KDC1 260829Z 31004KT 15/08 A3007 RMK A01 T01470082  RH  065%=      5-min Rain = 0
KDC1 260830Z 32004KT 15/08 A3007 RMK A01 T01460081  RH  065%=      5-min Rain = 0
KDC1 260831Z 32004KT 15/08 A3007 RMK A01 T01450080  RH  065%=      5-min Rain = 0
KDC1 260832Z 33004KT 14/08 A3007 RMK A01 T01440078  RH  065%=      5-min Rain = 0
KDC1 260833Z 33004KT 14/08 A3007 RMK A01 T01420079  RH  066%=      5-min Rain = 0
KDC1 260834Z 33003KT 14/08 A3007 RMK A01 T01410080  RH  066%=      5-min Rain = 0
KDC1 260835Z 32003KT 14/08 A3007 RMK A01 T01410080  RH  066%=      5-min Rain = 0
KDC1 260836Z 30003KT 14/08 A3007 RMK A01 T01410080  RH  067%=      5-min Rain = 0
KDC1 260837Z 31003KT 14/08 A3007 RMK A01 T01420080  RH  066%=      5-min Rain = 0
KDC1 260838Z 31003KT 14/08 A3007 RMK A01 T01440081  RH  066%=      5-min Rain = 0
KDC1 260839Z 29002KT 15/08 A3007 RMK A01 T01460081  RH  065%=      5-min Rain = 0
KDC1 260840Z 30002KT 15/08 A3007 RMK A01 T01470081  RH  065%=      5-min Rain = 0
KDC1 260841Z 27002KT 15/08 A3007 RMK A01 T01480081  RH  064%=      5-min Rain = 0
KDC1 260842Z 30002KT 15/08 A3007 RMK A01 T01480082  RH  064%=      5-min Rain = 0
KDC1 260843Z 30001KT 15/08 A3007 RMK A01 T01480083  RH  065%=      5-min Rain = 0
KDC1 260844Z 27002KT 15/08 A3007 RMK A01 T01470083  RH  065%=      5-min Rain = 0
KDC1 260845Z 26002KT 15/08 A3007 RMK A01 T01470084  RH  066%=      5-min Rain = 0
KDC1 260846Z 26002KT 15/08 A3007 RMK A01 T01460084  RH  066%=      5-min Rain = 0
KDC1 260847Z 25001KT 15/08 A3007 RMK A01 T01450084  RH  066%=      5-min Rain = 0
KDC1 260848Z 23001KT 14/08 A3007 RMK A01 T01430083  RH  067%=      5-min Rain = 0
KDC1 260849Z 22001KT 14/08 A3007 RMK A01 T01430083  RH  067%=      5-min Rain = 0
KDC1 260850Z 22002KT 14/08 A3007 RMK A01 T01430084  RH  067%=      5-min Rain = 0
KDC1 260851Z 21002KT 14/08 A3007 RMK A01 T01440084  RH  067%=      5-min Rain = 0
KDC1 260852Z 21003KT 14/08 A3007 RMK A01 T01440084  RH  067%=      5-min Rain = 0
KDC1 260853Z 22002KT 14/08 A3007 RMK A01 T01440084  RH  067%=      5-min Rain = 0
KDC1 260854Z 21003KT 15/08 A3007 RMK A01 T01450083  RH  066%=      5-min Rain = 0
KDC1 260855Z 21003KT 15/08 A3007 RMK A01 T01470083  RH  066%=      5-min Rain = 0
KDC1 260856Z 21003KT 15/08 A3007 RMK A01 T01480083  RH  065%=      5-min Rain = 0
KDC1 260857Z 21005KT 15/08 A3007 RMK A01 T01470082  RH  065%=      5-min Rain = 0
KDC1 260858Z 21004KT 15/08 A3007 RMK A01 T01460082  RH  065%=      5-min Rain = 0
KDC1 260859Z 21005KT 15/08 A3007 RMK A01 T01460081  RH  065%=      5-min Rain = 0
KDC1 260900Z 21004KT 15/08 A3007 RMK A01 T01450081  RH  065%=      5-min Rain = 0
KDC1 260901Z 21003KT 14/08 A3007 RMK A01 T01440081  RH  066%=      5-min Rain = 0
KDC1 260902Z 21004KT 14/08 A3007 RMK A01 T01430081  RH  066%=      5-min Rain = 0
KDC1 260903Z 21005KT 14/08 A3007 RMK A01 T01420082  RH  067%=      5-min Rain = 0
KDC1 260904Z 21004KT 14/08 A3007 RMK A01 T01410082  RH  067%=      5-min Rain = 0
KDC1 260905Z 21006KT 14/08 A3007 RMK A01 T01400081  RH  068%=      5-min Rain = 0
KDC1 260906Z 22005KT 14/08 A3007 RMK A01 T01390081  RH  068%=      5-min Rain = 0
KDC1 260907Z 22006KT 14/08 A3007 RMK A01 T01380081  RH  069%=      5-min Rain = 0
KDC1 260908Z 22005KT 14/08 A3007 RMK A01 T01380082  RH  069%=      5-min Rain = 0
KDC1 260909Z 22006KT 14/08 A3007 RMK A01 T01370082  RH  069%=      5-min Rain = 0
KDC1 260910Z 22005KT 14/08 A3007 RMK A01 T01370082  RH  069%=      5-min Rain = 0
KDC1 260911Z 22005KT 14/08 A3007 RMK A01 T01370082  RH  069%=      5-min Rain = 0
KDC1 260912Z 22006KT 14/08 A3007 RMK A01 T01360081  RH  069%=      5-min Rain = 0
KDC1 260913Z 23005KT 14/08 A3007 RMK A01 T01350081  RH  070%=      5-min Rain = 0
KDC1 260914Z 23005KT 13/08 A3007 RMK A01 T01340082  RH  071%=      5-min Rain = 0
KDC1 260915Z 23005KT 13/08 A3007 RMK A01 T01330082  RH  071%=      5-min Rain = 0
KDC1 260916Z 23005KT 13/08 A3007 RMK A01 T01320082  RH  072%=      5-min Rain = 0
KDC1 260917Z 23006KT 13/08 A3007 RMK A01 T01310081  RH  072%=      5-min Rain = 0
KDC1 260918Z 23005KT 13/08 A3007 RMK A01 T01320081  RH  071%=      5-min Rain = 0
KDC1 260919Z 23005KT 13/08 A3007 RMK A01 T01320081  RH  071%=      5-min Rain = 0
KDC1 260920Z 24004KT 13/08 A3007 RMK A01 T01320080  RH  071%=      5-min Rain = 0
KDC1 260921Z 24005KT 13/08 A3007 RMK A01 T01330081  RH  071%=      5-min Rain = 0
KDC1 260922Z 24005KT 13/08 A3007 RMK A01 T01320081  RH  071%=      5-min Rain = 0
KDC1 260923Z 24005KT 13/08 A3007 RMK A01 T01330082  RH  071%=      5-min Rain = 0
KDC1 260924Z 23005KT 13/08 A3007 RMK A01 T01330082  RH  071%=      5-min Rain = 0
KDC1 260925Z 24004KT 13/08 A3007 RMK A01 T01330082  RH  071%=      5-min Rain = 0
KDC1 260926Z 23005KT 13/08 A3007 RMK A01 T01330082  RH  071%=      5-min Rain = 0
KDC1 260927Z 23005KT 13/08 A3007 RMK A01 T01330081  RH  071%=      5-min Rain = 0
KDC1 260928Z 24004KT 13/08 A3007 RMK A01 T01330081  RH  071%=      5-min Rain = 0
KDC1 260929Z 23004KT 13/08 A3007 RMK A01 T01330081  RH  071%=      5-min Rain = 0
KDC1 260930Z 23004KT 13/08 A3007 RMK A01 T01320081  RH  071%=      5-min Rain = 0
KDC1 260931Z 24004KT 13/08 A3007 RMK A01 T01320082  RH  071%=      5-min Rain = 0
KDC1 260932Z 24004KT 13/08 A3007 RMK A01 T01310082  RH  072%=      5-min Rain = 0
KDC1 260933Z 24004KT 13/08 A3007 RMK A01 T01300082  RH  072%=      5-min Rain = 0
KDC1 260934Z 25004KT 13/08 A3007 RMK A01 T01300083  RH  073%=      5-min Rain = 0
KDC1 260935Z 25004KT 13/08 A3007 RMK A01 T01290083  RH  074%=      5-min Rain = 0
KDC1 260936Z 26004KT 13/08 A3007 RMK A01 T01280083  RH  074%=      5-min Rain = 0
KDC1 260937Z 26004KT 13/08 A3007 RMK A01 T01270082  RH  074%=      5-min Rain = 0
KDC1 260938Z 26004KT 13/08 A3007 RMK A01 T01260081  RH  074%=      5-min Rain = 0
KDC1 260939Z 26005KT 13/08 A3007 RMK A01 T01260080  RH  074%=      5-min Rain = 0
KDC1 260940Z 26005KT 13/08 A3007 RMK A01 T01260079  RH  073%=      5-min Rain = 0
KDC1 260941Z 26006KT 13/08 A3007 RMK A01 T01260078  RH  073%=      5-min Rain = 0
KDC1 260942Z 26006KT 13/08 A3007 RMK A01 T01250076  RH  072%=      5-min Rain = 0
KDC1 260943Z 25005KT 13/08 A3007 RMK A01 T01250075  RH  072%=      5-min Rain = 0
KDC1 260944Z 25004KT 13/08 A3007 RMK A01 T01250075  RH  071%=      5-min Rain = 0
KDC1 260945Z 25003KT 13/08 A3007 RMK A01 T01260076  RH  071%=      5-min Rain = 0
KDC1 260946Z 24003KT 13/08 A3008 RMK A01 T01270075  RH  071%=      5-min Rain = 0
KDC1 260947Z 25005KT 13/08 A3008 RMK A01 T01280076  RH  071%=      5-min Rain = 0
KDC1 260948Z 25005KT 13/08 A3008 RMK A01 T01290078  RH  071%=      5-min Rain = 0
KDC1 260949Z 25005KT 13/08 A3008 RMK A01 T01300079  RH  071%=      5-min Rain = 0
KDC1 260950Z 25005KT 13/08 A3008 RMK A01 T01310080  RH  071%=      5-min Rain = 0
KDC1 260951Z 25005KT 13/08 A3008 RMK A01 T01310081  RH  072%=      5-min Rain = 0
KDC1 260952Z 25005KT 13/08 A3008 RMK A01 T01310081  RH  072%=      5-min Rain = 0
KDC1 260953Z 26004KT 13/08 A3008 RMK A01 T01300081  RH  072%=      5-min Rain = 0
KDC1 260954Z 25005KT 13/08 A3008 RMK A01 T01290080  RH  072%=      5-min Rain = 0
KDC1 260955Z 26004KT 13/08 A3008 RMK A01 T01290080  RH  072%=      5-min Rain = 0
KDC1 260956Z 25003KT 13/08 A3008 RMK A01 T01290079  RH  072%=      5-min Rain = 0
KDC1 260957Z 25006KT 13/08 A3008 RMK A01 T01290079  RH  072%=      5-min Rain = 0
KDC1 260958Z 24005KT 13/08 A3008 RMK A01 T01290078  RH  071%=      5-min Rain = 0
KDC1 260959Z 24005KT 13/08 A3008 RMK A01 T01300078  RH  071%=      5-min Rain = 0
KDC1 261000Z 24005KT 13/08 A3008 RMK A01 T01300078  RH  071%=      5-min Rain = 0
KDC1 261001Z 24004KT 13/08 A3008 RMK A01 T01300078  RH  071%=      5-min Rain = 0
KDC1 261002Z 24005KT 13/08 A3008 RMK A01 T01300077  RH  070%=      5-min Rain = 0
KDC1 261003Z 24006KT 13/08 A3008 RMK A01 T01300076  RH  070%=      5-min Rain = 0
KDC1 261004Z 24005KT 13/08 A3008 RMK A01 T01300076  RH  070%=      5-min Rain = 0
KDC1 261005Z 24005KT 13/08 A3008 RMK A01 T01300076  RH  070%=      5-min Rain = 0
KDC1 261006Z 25006KT 13/08 A3008 RMK A01 T01290076  RH  070%=      5-min Rain = 0
KDC1 261007Z 24006KT 13/08 A3008 RMK A01 T01290076  RH  071%=      5-min Rain = 0
KDC1 261008Z 24005KT 13/08 A3008 RMK A01 T01280076  RH  071%=      5-min Rain = 0
KDC1 261009Z 24006KT 13/08 A3008 RMK A01 T01270076  RH  071%=      5-min Rain = 0
KDC1 261010Z 23005KT 13/08 A3008 RMK A01 T01270076  RH  071%=      5-min Rain = 0
KDC1 261011Z 23007KT 13/08 A3008 RMK A01 T01270077  RH  071%=      5-min Rain = 0
KDC1 261012Z 24006KT 13/08 A3008 RMK A01 T01270077  RH  071%=      5-min Rain = 0
KDC1 261013Z 24005KT 13/08 A3008 RMK A01 T01270076  RH  071%=      5-min Rain = 0
KDC1 261014Z 25007KT 13/08 A3008 RMK A01 T01270076  RH  071%=      5-min Rain = 0
KDC1 261015Z 25007KT 13/08 A3008 RMK A01 T01280076  RH  071%=      5-min Rain = 0
KDC1 261016Z 25008KT 13/08 A3008 RMK A01 T01290077  RH  070%=      5-min Rain = 0
KDC1 261017Z 25008KT 13/08 A3008 RMK A01 T01300076  RH  070%=      5-min Rain = 0
KDC1 261018Z 25008KT 13/08 A3008 RMK A01 T01300076  RH  070%=      5-min Rain = 0
KDC1 261019Z 25008KT 13/08 A3008 RMK A01 T01300076  RH  070%=      5-min Rain = 0
KDC1 261020Z 25007KT 13/08 A3008 RMK A01 T01310076  RH  069%=      5-min Rain = 0
KDC1 261021Z 25007KT 13/08 A3008 RMK A01 T01310077  RH  069%=      5-min Rain = 0
KDC1 261022Z 25007KT 13/08 A3008 RMK A01 T01310077  RH  069%=      5-min Rain = 0
KDC1 261023Z 25008KT 13/08 A3008 RMK A01 T01310076  RH  069%=      5-min Rain = 0
KDC1 261024Z 25007KT 13/08 A3008 RMK A01 T01310077  RH  070%=      5-min Rain = 0
KDC1 261025Z 25007KT 13/08 A3008 RMK A01 T01310077  RH  070%=      5-min Rain = 0
KDC1 261026Z 25007KT 13/08 A3008 RMK A01 T01300078  RH  070%=      5-min Rain = 0
KDC1 261027Z 25007KT 13/08 A3009 RMK A01 T01290078  RH  071%=      5-min Rain = 0
KDC1 261028Z 25006KT 13/08 A3009 RMK A01 T01290079  RH  072%=      5-min Rain = 0
KDC1 261029Z 25006KT 13/08 A3009 RMK A01 T01280079  RH  072%=      5-min Rain = 0
KDC1 261030Z 24005KT 13/08 A3009 RMK A01 T01290080  RH  072%=      5-min Rain = 0
KDC1 261031Z 25005KT 13/08 A3009 RMK A01 T01280081  RH  073%=      5-min Rain = 0
KDC1 261032Z 25006KT 13/08 A3009 RMK A01 T01280080  RH  073%=      5-min Rain = 0
KDC1 261033Z 25006KT 13/08 A3009 RMK A01 T01290080  RH  072%=      5-min Rain = 0
KDC1 261034Z 25006KT 13/08 A3008 RMK A01 T01280080  RH  072%=      5-min Rain = 0
KDC1 261035Z 25007KT 13/08 A3008 RMK A01 T01270081  RH  073%=      5-min Rain = 0
KDC1 261036Z 25007KT 13/08 A3008 RMK A01 T01270081  RH  073%=      5-min Rain = 0
KDC1 261037Z 24006KT 13/08 A3008 RMK A01 T01270080  RH  073%=      5-min Rain = 0
KDC1 261038Z 24006KT 13/08 A3008 RMK A01 T01270080  RH  073%=      5-min Rain = 0
KDC1 261039Z 24006KT 13/08 A3008 RMK A01 T01280081  RH  073%=      5-min Rain = 0
KDC1 261040Z 25007KT 13/08 A3008 RMK A01 T01290081  RH  073%=      5-min Rain = 0
KDC1 261041Z 24006KT 13/08 A3008 RMK A01 T01280081  RH  073%=      5-min Rain = 0
KDC1 261042Z 25005KT 13/08 A3008 RMK A01 T01270081  RH  073%=      5-min Rain = 0
KDC1 261043Z 25006KT 13/08 A3008 RMK A01 T01270080  RH  073%=      5-min Rain = 0
KDC1 261044Z 25006KT 13/08 A3008 RMK A01 T01260080  RH  074%=      5-min Rain = 0
KDC1 261045Z 25006KT 13/08 A3008 RMK A01 T01250080  RH  074%=      5-min Rain = 0
KDC1 261046Z 25006KT 13/08 A3008 RMK A01 T01250080  RH  074%=      5-min Rain = 0
KDC1 261047Z 26006KT 13/08 A3008 RMK A01 T01260080  RH  074%=      5-min Rain = 0
KDC1 261048Z 26005KT 13/08 A3008 RMK A01 T01260081  RH  074%=      5-min Rain = 0
KDC1 261049Z 26005KT 13/08 A3008 RMK A01 T01260080  RH  074%=      5-min Rain = 0
KDC1 261050Z 25005KT 13/08 A3008 RMK A01 T01250080  RH  074%=      5-min Rain = 0
KDC1 261051Z 25006KT 13/08 A3008 RMK A01 T01260080  RH  074%=      5-min Rain = 0
KDC1 261052Z 26006KT 13/08 A3008 RMK A01 T01250081  RH  074%=      5-min Rain = 0
KDC1 261053Z 26005KT 13/08 A3008 RMK A01 T01250081  RH  075%=      5-min Rain = 0
KDC1 261054Z 26005KT 12/08 A3008 RMK A01 T01240081  RH  075%=      5-min Rain = 0
KDC1 261055Z 26004KT 12/08 A3008 RMK A01 T01230080  RH  075%=      5-min Rain = 0
KDC1 261056Z 26003KT 12/08 A3008 RMK A01 T01230080  RH  075%=      5-min Rain = 0
KDC1 261057Z 26004KT 12/08 A3009 RMK A01 T01210080  RH  076%=      5-min Rain = 0
KDC1 261058Z 25003KT 12/08 A3009 RMK A01 T01200079  RH  076%=      5-min Rain = 0
KDC1 261059Z 26004KT 12/08 A3009 RMK A01 T01190078  RH  076%=      5-min Rain = 0
KDC1 261100Z 26004KT 12/08 A3009 RMK A01 T01180077  RH  076%=      5-min Rain = 0
KDC1 261101Z 26004KT 12/08 A3009 RMK A01 T01170076  RH  076%=      5-min Rain = 0
KDC1 261102Z 26004KT 12/08 A3009 RMK A01 T01160076  RH  076%=      5-min Rain = 0
KDC1 261103Z 26005KT 12/08 A3009 RMK A01 T01170077  RH  076%=      5-min Rain = 0
KDC1 261104Z 26005KT 12/08 A3009 RMK A01 T01160077  RH  077%=      5-min Rain = 0
KDC1 261105Z 26005KT 12/08 A3009 RMK A01 T01170078  RH  077%=      5-min Rain = 0
KDC1 261106Z 26006KT 12/08 A3009 RMK A01 T01170078  RH  077%=      5-min Rain = 0
KDC1 261107Z 26005KT 12/08 A3009 RMK A01 T01170079  RH  077%=      5-min Rain = 0
KDC1 261108Z 26005KT 12/08 A3009 RMK A01 T01180080  RH  077%=      5-min Rain = 0
KDC1 261109Z 26006KT 12/08 A3009 RMK A01 T01190080  RH  077%=      5-min Rain = 0
KDC1 261110Z 26006KT 12/08 A3009 RMK A01 T01190079  RH  077%=      5-min Rain = 0
KDC1 261111Z 26006KT 12/08 A3009 RMK A01 T01200080  RH  076%=      5-min Rain = 0
KDC1 261112Z 26006KT 12/08 A3009 RMK A01 T01210080  RH  076%=      5-min Rain = 0
KDC1 261113Z 25006KT 12/08 A3009 RMK A01 T01220080  RH  076%=      5-min Rain = 0
KDC1 261114Z 25006KT 12/08 A3009 RMK A01 T01230081  RH  075%=      5-min Rain = 0
KDC1 261115Z 25007KT 12/08 A3009 RMK A01 T01240081  RH  075%=      5-min Rain = 0
KDC1 261116Z 25007KT 13/08 A3009 RMK A01 T01250082  RH  075%=      5-min Rain = 0
KDC1 261117Z 25007KT 13/08 A3009 RMK A01 T01260082  RH  075%=      5-min Rain = 0
KDC1 261118Z 25007KT 13/08 A3009 RMK A01 T01250082  RH  075%=      5-min Rain = 0
KDC1 261119Z 25007KT 13/08 A3009 RMK A01 T01250082  RH  075%=      5-min Rain = 0
KDC1 261120Z 25006KT 12/08 A3009 RMK A01 T01240082  RH  075%=      5-min Rain = 0
KDC1 261121Z 25006KT 12/08 A3009 RMK A01 T01240082  RH  075%=      5-min Rain = 0
KDC1 261122Z 25005KT 12/08 A3009 RMK A01 T01240082  RH  075%=      5-min Rain = 0
KDC1 261123Z 26004KT 13/08 A3009 RMK A01 T01250082  RH  075%=      5-min Rain = 0
KDC1 261124Z 26005KT 12/08 A3009 RMK A01 T01240082  RH  075%=      5-min Rain = 0
KDC1 261125Z 26005KT 12/08 A3009 RMK A01 T01240082  RH  075%=      5-min Rain = 0
KDC1 261126Z 26005KT 12/08 A3009 RMK A01 T01230082  RH  076%=      5-min Rain = 0
KDC1 261127Z 25005KT 12/08 A3009 RMK A01 T01230081  RH  076%=      5-min Rain = 0
KDC1 261128Z 26005KT 12/08 A3009 RMK A01 T01220081  RH  076%=      5-min Rain = 0
KDC1 261129Z 26005KT 12/08 A3009 RMK A01 T01220081  RH  076%=      5-min Rain = 0
KDC1 261130Z 26006KT 12/08 A3009 RMK A01 T01220081  RH  076%=      5-min Rain = 0
KDC1 261131Z 26006KT 12/08 A3009 RMK A01 T01220081  RH  076%=      5-min Rain = 0
KDC1 261132Z 26005KT 12/08 A3009 RMK A01 T01220080  RH  076%=      5-min Rain = 0
KDC1 261133Z 25004KT 12/08 A3009 RMK A01 T01220080  RH  076%=      5-min Rain = 0
KDC1 261134Z 26005KT 12/08 A3009 RMK A01 T01210080  RH  076%=      5-min Rain = 0
KDC1 261135Z 25004KT 12/08 A3009 RMK A01 T01210080  RH  076%=      5-min Rain = 0
KDC1 261136Z 26004KT 12/08 A3009 RMK A01 T01210081  RH  076%=      5-min Rain = 0
KDC1 261137Z 26004KT 12/08 A3009 RMK A01 T01220081  RH  076%=      5-min Rain = 0
KDC1 261138Z 26005KT 12/08 A3009 RMK A01 T01220080  RH  076%=      5-min Rain = 0
KDC1 261139Z 26005KT 12/08 A3009 RMK A01 T01210079  RH  075%=      5-min Rain = 0
KDC1 261140Z 27005KT 12/08 A3009 RMK A01 T01200078  RH  076%=      5-min Rain = 0
KDC1 261141Z 26004KT 12/08 A3009 RMK A01 T01190078  RH  076%=      5-min Rain = 0
KDC1 261142Z 26004KT 12/08 A3009 RMK A01 T01180077  RH  076%=      5-min Rain = 0
KDC1 261143Z 27004KT 12/08 A301 RMK A01 T01180078  RH  077%=      5-min Rain = 0
KDC1 261144Z 26005KT 12/08 A301 RMK A01 T01170078  RH  077%=      5-min Rain = 0
KDC1 261145Z 21002KT 12/08 A301 RMK A01 T01170078  RH  077%=      5-min Rain = 0
KDC1 261146Z 25003KT 12/08 A301 RMK A01 T01170080  RH  078%=      5-min Rain = 0
KDC1 261147Z 26005KT 12/08 A301 RMK A01 T01170080  RH  078%=      5-min Rain = 0
KDC1 261148Z 26005KT 12/08 A301 RMK A01 T01180081  RH  078%=      5-min Rain = 0
KDC1 261149Z 26005KT 12/08 A301 RMK A01 T01190082  RH  078%=      5-min Rain = 0
KDC1 261150Z 26005KT 12/08 A301 RMK A01 T01200082  RH  078%=      5-min Rain = 0
KDC1 261151Z 26005KT 12/08 A301 RMK A01 T01200081  RH  077%=      5-min Rain = 0
KDC1 261152Z 26005KT 12/08 A301 RMK A01 T01200081  RH  077%=      5-min Rain = 0
KDC1 261153Z 26004KT 12/08 A301 RMK A01 T01190081  RH  078%=      5-min Rain = 0
KDC1 261154Z 26004KT 12/08 A301 RMK A01 T01180081  RH  078%=      5-min Rain = 0
KDC1 261155Z 26004KT 12/08 A301 RMK A01 T01180081  RH  078%=      5-min Rain = 0
KDC1 261156Z 27004KT 12/08 A301 RMK A01 T01180080  RH  078%=      5-min Rain = 0
KDC1 261157Z 27004KT 12/08 A301 RMK A01 T01170079  RH  077%=      5-min Rain = 0
KDC1 261158Z 27004KT 12/08 A301 RMK A01 T01150078  RH  078%=      5-min Rain = 0
KDC1 261159Z 27004KT 11/08 A301 RMK A01 T01140078  RH  078%=      5-min Rain = 0
KDC1 261200Z 27004KT 11/08 A301 RMK A01 T01140078  RH  079%=      5-min Rain = 0
KDC1 261201Z 27004KT 11/08 A301 RMK A01 T01130078  RH  079%=      5-min Rain = 0
KDC1 261202Z 28005KT 11/08 A301 RMK A01 T01110078  RH  080%=      5-min Rain = 0
KDC1 261203Z 28005KT 11/08 A301 RMK A01 T01100078  RH  081%=      5-min Rain = 0
KDC1 261204Z 28005KT 11/08 A301 RMK A01 T01080079  RH  082%=      5-min Rain = 0
KDC1 261205Z 28005KT 11/08 A301 RMK A01 T01080079  RH  082%=      5-min Rain = 0
KDC1 261206Z 28004KT 11/08 A301 RMK A01 T01070079  RH  083%=      5-min Rain = 0
KDC1 261207Z 28004KT 11/08 A301 RMK A01 T01060079  RH  083%=      5-min Rain = 0
KDC1 261208Z 28004KT 11/08 A301 RMK A01 T01060081  RH  084%=      5-min Rain = 0
KDC1 261209Z 28004KT 11/08 A301 RMK A01 T01060081  RH  085%=      5-min Rain = 0
KDC1 261210Z 27004KT 11/08 A3011 RMK A01 T01070082  RH  085%=      5-min Rain = 0
KDC1 261211Z 27004KT 11/08 A3011 RMK A01 T01070083  RH  085%=      5-min Rain = 0
KDC1 261212Z 28005KT 11/08 A3011 RMK A01 T01080083  RH  085%=      5-min Rain = 0
KDC1 261213Z 27004KT 11/08 A3011 RMK A01 T01090084  RH  085%=      5-min Rain = 0
KDC1 261214Z 27005KT 11/08 A3011 RMK A01 T01100084  RH  084%=      5-min Rain = 0
KDC1 261215Z 27005KT 11/08 A3011 RMK A01 T01100084  RH  084%=      5-min Rain = 0
KDC1 261216Z 27004KT 11/08 A3011 RMK A01 T01110084  RH  083%=      5-min Rain = 0
KDC1 261217Z 27004KT 11/08 A3011 RMK A01 T01110084  RH  083%=      5-min Rain = 0
KDC1 261218Z 28004KT 11/08 A3011 RMK A01 T01110084  RH  083%=      5-min Rain = 0
KDC1 261219Z 27004KT 11/08 A3011 RMK A01 T01120084  RH  083%=      5-min Rain = 0
KDC1 261220Z 27004KT 11/08 A3011 RMK A01 T01110084  RH  083%=      5-min Rain = 0
KDC1 261221Z 27003KT 11/08 A3011 RMK A01 T01120084  RH  083%=      5-min Rain = 0
KDC1 261222Z 28004KT 11/08 A3011 RMK A01 T01120084  RH  083%=      5-min Rain = 0
KDC1 261223Z 27004KT 11/09 A3011 RMK A01 T01120085  RH  083%=      5-min Rain = 0
KDC1 261224Z 27004KT 11/09 A3011 RMK A01 T01130085  RH  083%=      5-min Rain = 0
KDC1 261225Z 27004KT 11/09 A3011 RMK A01 T01130085  RH  083%=      5-min Rain = 0
KDC1 261226Z 27004KT 11/09 A3011 RMK A01 T01130085  RH  083%=      5-min Rain = 0
KDC1 261227Z 27004KT 11/08 A3011 RMK A01 T01130084  RH  083%=      5-min Rain = 0
KDC1 261228Z 27004KT 11/08 A3011 RMK A01 T01130084  RH  082%=      5-min Rain = 0
KDC1 261229Z 28004KT 11/09 A3011 RMK A01 T01140085  RH  083%=      5-min Rain = 0
KDC1 261230Z 27003KT 11/09 A3011 RMK A01 T01140085  RH  083%=      5-min Rain = 0
KDC1 261231Z 27004KT 11/09 A3011 RMK A01 T01140086  RH  083%=      5-min Rain = 0
KDC1 261232Z 27004KT 12/09 A3011 RMK A01 T01150087  RH  083%=      5-min Rain = 0
KDC1 261233Z 27004KT 12/09 A3011 RMK A01 T01150087  RH  083%=      5-min Rain = 0
KDC1 261234Z 27004KT 12/09 A3011 RMK A01 T01160087  RH  082%=      5-min Rain = 0
KDC1 261235Z 27004KT 12/09 A3011 RMK A01 T01170087  RH  082%=      5-min Rain = 0
KDC1 261236Z 27004KT 12/09 A3011 RMK A01 T01180088  RH  082%=      5-min Rain = 0
KDC1 261237Z 27004KT 12/09 A3011 RMK A01 T01180088  RH  082%=      5-min Rain = 0
KDC1 261238Z 27003KT 12/09 A3011 RMK A01 T01190088  RH  082%=      5-min Rain = 0
KDC1 261239Z 27003KT 12/09 A3011 RMK A01 T01190089  RH  082%=      5-min Rain = 0
KDC1 261240Z 27003KT 12/09 A3011 RMK A01 T01190089  RH  082%=      5-min Rain = 0
KDC1 261241Z 28003KT 12/09 A3011 RMK A01 T01190089  RH  082%=      5-min Rain = 0
KDC1 261242Z 27003KT 12/09 A3011 RMK A01 T01190090  RH  082%=      5-min Rain = 0
KDC1 261243Z 27003KT 12/09 A3011 RMK A01 T01190090  RH  082%=      5-min Rain = 0
KDC1 261244Z 25003KT 12/09 A3011 RMK A01 T01190090  RH  082%=      5-min Rain = 0
KDC1 261245Z 24003KT 12/09 A3011 RMK A01 T01200091  RH  082%=      5-min Rain = 0
KDC1 261246Z 24002KT 12/09 A3011 RMK A01 T01220092  RH  082%=      5-min Rain = 0
KDC1 261247Z 23002KT 13/09 A3011 RMK A01 T01250092  RH  081%=      5-min Rain = 0
KDC1 261248Z 23003KT 13/09 A3011 RMK A01 T01270093  RH  080%=      5-min Rain = 0
KDC1 261249Z 21002KT 13/10 A3011 RMK A01 T01300095  RH  079%=      5-min Rain = 0
KDC1 261250Z 20003KT 13/10 A3011 RMK A01 T01330095  RH  078%=      5-min Rain = 0
KDC1 261251Z 19003KT 14/09 A3011 RMK A01 T01350094  RH  076%=      5-min Rain = 0
KDC1 261252Z 20003KT 14/09 A3011 RMK A01 T01380094  RH  075%=      5-min Rain = 0
KDC1 261253Z 18002KT 14/09 A3011 RMK A01 T01400093  RH  073%=      5-min Rain = 0
KDC1 261254Z 19001KT 14/09 A3011 RMK A01 T01420094  RH  073%=      5-min Rain = 0
KDC1 261255Z 18001KT 14/10 A3011 RMK A01 T01430095  RH  072%=      5-min Rain = 0
KDC1 261256Z 19000KT 14/10 A3011 RMK A01 T01440095  RH  072%=      5-min Rain = 0
KDC1 261257Z 18003KT 15/10 A3011 RMK A01 T01450095  RH  071%=      5-min Rain = 0
KDC1 261258Z 19002KT 15/09 A3011 RMK A01 T01460094  RH  071%=      5-min Rain = 0
KDC1 261259Z 23000KT 15/10 A3011 RMK A01 T01470095  RH  071%=      5-min Rain = 0
KDC1 261300Z 21000KT 15/10 A3011 RMK A01 T01470097  RH  072%=      5-min Rain = 0
KDC1 261301Z 20001KT 15/10 A3011 RMK A01 T01480098  RH  071%=      5-min Rain = 0
KDC1 261302Z 17002KT 15/10 A3012 RMK A01 T01490097  RH  071%=      5-min Rain = 0
KDC1 261303Z 17003KT 15/10 A3012 RMK A01 T01500097  RH  070%=      5-min Rain = 0
KDC1 261304Z 18003KT 15/10 A3012 RMK A01 T01500096  RH  070%=      5-min Rain = 0
KDC1 261305Z 17004KT 15/10 A3012 RMK A01 T01500096  RH  070%=      5-min Rain = 0
KDC1 261306Z 18003KT 15/10 A3012 RMK A01 T01490095  RH  070%=      5-min Rain = 0
KDC1 261307Z 18002KT 15/10 A3012 RMK A01 T01490095  RH  070%=      5-min Rain = 0
KDC1 261308Z 19002KT 15/10 A3012 RMK A01 T01490096  RH  070%=      5-min Rain = 0
KDC1 261309Z 18003KT 15/10 A3012 RMK A01 T01490096  RH  070%=      5-min Rain = 0
KDC1 261310Z 18003KT 15/09 A3012 RMK A01 T01490094  RH  069%=      5-min Rain = 0
KDC1 261311Z 18003KT 15/09 A3012 RMK A01 T01490092  RH  069%=      5-min Rain = 0
KDC1 261312Z 18003KT 15/09 A3012 RMK A01 T01480093  RH  070%=      5-min Rain = 0
KDC1 261313Z 18003KT 15/09 A3012 RMK A01 T01470092  RH  069%=      5-min Rain = 0
KDC1 261314Z 17002KT 15/09 A3012 RMK A01 T01470090  RH  069%=      5-min Rain = 0
KDC1 261315Z 18002KT 15/09 A3012 RMK A01 T01460090  RH  069%=      5-min Rain = 0
KDC1 261316Z 20002KT 15/09 A3012 RMK A01 T01450090  RH  069%=      5-min Rain = 0
KDC1 261317Z 20004KT 14/09 A3012 RMK A01 T01440086  RH  068%=      5-min Rain = 0
KDC1 261318Z 20003KT 14/08 A3012 RMK A01 T01430083  RH  067%=      5-min Rain = 0
KDC1 261319Z 23003KT 14/08 A3012 RMK A01 T01420084  RH  068%=      5-min Rain = 0
KDC1 261320Z 22003KT 14/08 A3012 RMK A01 T01420083  RH  068%=      5-min Rain = 0
KDC1 261321Z 21001KT 14/08 A3012 RMK A01 T01420083  RH  068%=      5-min Rain = 0
KDC1 261322Z 22003KT 14/08 A3012 RMK A01 T01420083  RH  068%=      5-min Rain = 0
KDC1 261323Z 22003KT 14/08 A3012 RMK A01 T01430084  RH  068%=      5-min Rain = 0
KDC1 261324Z 21003KT 14/08 A3012 RMK A01 T01440084  RH  067%=      5-min Rain = 0
KDC1 261325Z 21002KT 14/08 A3012 RMK A01 T01440084  RH  067%=      5-min Rain = 0
KDC1 261326Z 21003KT 14/08 A3012 RMK A01 T01440084  RH  067%=      5-min Rain = 0
KDC1 261327Z 22004KT 15/08 A3012 RMK A01 T01450084  RH  067%=      5-min Rain = 0
KDC1 261328Z 22004KT 14/08 A3012 RMK A01 T01440084  RH  067%=      5-min Rain = 0
KDC1 261329Z 23004KT 14/08 A3012 RMK A01 T01440084  RH  067%=      5-min Rain = 0
KDC1 261330Z 23004KT 14/08 A3012 RMK A01 T01430084  RH  068%=      5-min Rain = 0
KDC1 261331Z 21003KT 14/08 A3012 RMK A01 T01430084  RH  068%=      5-min Rain = 0
KDC1 261332Z 21004KT 14/09 A3012 RMK A01 T01430086  RH  068%=      5-min Rain = 0
KDC1 261333Z 22003KT 14/09 A3012 RMK A01 T01440086  RH  068%=      5-min Rain = 0
KDC1 261334Z 21003KT 15/09 A3012 RMK A01 T01450086  RH  068%=      5-min Rain = 0
KDC1 261335Z 19003KT 15/09 A3012 RMK A01 T01460086  RH  067%=      5-min Rain = 0
KDC1 261336Z 21003KT 15/09 A3012 RMK A01 T01460087  RH  067%=      5-min Rain = 0
KDC1 261337Z 21002KT 15/09 A3012 RMK A01 T01470087  RH  067%=      5-min Rain = 0
KDC1 261338Z 21002KT 15/09 A3012 RMK A01 T01490088  RH  067%=      5-min Rain = 0
KDC1 261339Z 21004KT 15/09 A3012 RMK A01 T01490087  RH  066%=      5-min Rain = 0
KDC1 261340Z 22003KT 15/09 A3012 RMK A01 T01490087  RH  066%=      5-min Rain = 0
KDC1 261341Z 21003KT 15/09 A3012 RMK A01 T01500088  RH  066%=      5-min Rain = 0
KDC1 261342Z 21002KT 15/09 A3012 RMK A01 T01520088  RH  066%=      5-min Rain = 0
KDC1 261343Z 19002KT 15/09 A3013 RMK A01 T01520088  RH  065%=      5-min Rain = 0
KDC1 261344Z 21004KT 15/09 A3013 RMK A01 T01530089  RH  065%=      5-min Rain = 0
KDC1 261345Z 18003KT 15/09 A3013 RMK A01 T01530089  RH  066%=      5-min Rain = 0
KDC1 261346Z 19005KT 15/09 A3013 RMK A01 T01540091  RH  066%=      5-min Rain = 0
KDC1 261347Z 17002KT 15/09 A3013 RMK A01 T01540090  RH  065%=      5-min Rain = 0
KDC1 261348Z 18005KT 15/09 A3013 RMK A01 T01540090  RH  066%=      5-min Rain = 0
KDC1 261349Z 17004KT 15/09 A3013 RMK A01 T01540090  RH  066%=      5-min Rain = 0
KDC1 261350Z 18002KT 15/09 A3013 RMK A01 T01530090  RH  066%=      5-min Rain = 0
KDC1 261351Z 17004KT 15/09 A3013 RMK A01 T01530093  RH  067%=      5-min Rain = 0
KDC1 261352Z 17004KT 15/09 A3013 RMK A01 T01530093  RH  067%=      5-min Rain = 0
KDC1 261353Z 16004KT 15/09 A3013 RMK A01 T01530094  RH  068%=      5-min Rain = 0
KDC1 261354Z 16005KT 15/09 A3013 RMK A01 T01520094  RH  068%=      5-min Rain = 0
KDC1 261355Z 16006KT 15/10 A3013 RMK A01 T01520095  RH  069%=      5-min Rain = 0
KDC1 261356Z 16005KT 15/10 A3013 RMK A01 T01510097  RH  070%=      5-min Rain = 0
KDC1 261357Z 18005KT 15/10 A3013 RMK A01 T01510098  RH  070%=      5-min Rain = 0
KDC1 261358Z 17004KT 15/10 A3013 RMK A01 T01520098  RH  070%=      5-min Rain = 0
KDC1 261359Z 17004KT 15/10 A3013 RMK A01 T01530098  RH  070%=      5-min Rain = 0
KDC1 261400Z 17004KT 15/10 A3013 RMK A01 T01540097  RH  069%=      5-min Rain = 0
KDC1 261401Z 19003KT 16/10 A3013 RMK A01 T01550099  RH  069%=      5-min Rain = 0
KDC1 261402Z 17004KT 16/10 A3013 RMK A01 T01560098  RH  068%=      5-min Rain = 0
KDC1 261403Z 18004KT 16/10 A3013 RMK A01 T01570099  RH  068%=      5-min Rain = 0
KDC1 261404Z 16005KT 16/10 A3013 RMK A01 T01570095  RH  066%=      5-min Rain = 0
KDC1 261405Z 18004KT 16/10 A3013 RMK A01 T01560096  RH  067%=      5-min Rain = 0
KDC1 261406Z 18004KT 16/10 A3013 RMK A01 T01570097  RH  068%=      5-min Rain = 0
KDC1 261407Z 18003KT 16/10 A3013 RMK A01 T01580097  RH  067%=      5-min Rain = 0
KDC1 261408Z 18003KT 16/10 A3013 RMK A01 T01580098  RH  067%=      5-min Rain = 0
KDC1 261409Z 19004KT 16/10 A3013 RMK A01 T01590098  RH  067%=      5-min Rain = 0
KDC1 261410Z 18005KT 16/10 A3013 RMK A01 T01590096  RH  066%=      5-min Rain = 0
KDC1 261411Z 18005KT 16/10 A3013 RMK A01 T01580097  RH  067%=      5-min Rain = 0
KDC1 261412Z 18003KT 16/10 A3013 RMK A01 T01590097  RH  067%=      5-min Rain = 0
KDC1 261413Z 16005KT 16/10 A3013 RMK A01 T01600099  RH  067%=      5-min Rain = 0
KDC1 261414Z 17004KT 16/10 A3013 RMK A01 T01610099  RH  067%=      5-min Rain = 0
KDC1 261415Z 17005KT 16/10 A3013 RMK A01 T01620098  RH  065%=      5-min Rain = 0
KDC1 261416Z 17004KT 16/10 A3013 RMK A01 T01630099  RH  066%=      5-min Rain = 0
KDC1 261417Z 17004KT 17/10 A3013 RMK A01 T01650100  RH  065%=      5-min Rain = 0
KDC1 261418Z 17004KT 17/10 A3013 RMK A01 T01670099  RH  064%=      5-min Rain = 0
KDC1 261419Z 17005KT 17/10 A3013 RMK A01 T01670101  RH  065%=      5-min Rain = 0
KDC1 261420Z 17005KT 17/10 A3013 RMK A01 T01690098  RH  063%=      5-min Rain = 0
KDC1 261421Z 17007KT 17/10 A3013 RMK A01 T01690099  RH  063%=      5-min Rain = 0
KDC1 261422Z 17007KT 17/10 A3013 RMK A01 T01710100  RH  063%=      5-min Rain = 0
KDC1 261423Z 17005KT 17/10 A3013 RMK A01 T01710099  RH  062%=      5-min Rain = 0
KDC1 261424Z 18005KT 17/10 A3013 RMK A01 T01720102  RH  063%=      5-min Rain = 0
KDC1 261425Z 17006KT 17/10 A3013 RMK A01 T01730101  RH  063%=      5-min Rain = 0
KDC1 261426Z 17006KT 17/10 A3013 RMK A01 T01730100  RH  062%=      5-min Rain = 0
KDC1 261427Z 16007KT 17/10 A3013 RMK A01 T01720101  RH  063%=      5-min Rain = 0
KDC1 261428Z 16010KT 17/10 A3013 RMK A01 T01720102  RH  063%=      5-min Rain = 0
KDC1 261429Z 16008KT 17/10 A3013 RMK A01 T01730100  RH  062%=      5-min Rain = 0
KDC1 261430Z 16007KT 17/10 A3013 RMK A01 T01730102  RH  063%=      5-min Rain = 0
KDC1 261431Z 16006KT 18/11 A3013 RMK A01 T01750105  RH  063%=      5-min Rain = 0
KDC1 261432Z 16006KT 18/10 A3013 RMK A01 T01750101  RH  062%=      5-min Rain = 0
KDC1 261433Z 16007KT 18/10 A3013 RMK A01 T01760103  RH  062%=      5-min Rain = 0
KDC1 261434Z 15007KT 18/10 A3013 RMK A01 T01760103  RH  062%=      5-min Rain = 0
KDC1 261435Z 14008KT 18/10 A3013 RMK A01 T01770103  RH  062%=      5-min Rain = 0
KDC1 261436Z 14008KT 18/10 A3013 RMK A01 T01780102  RH  061%=      5-min Rain = 0
KDC1 261437Z 17008KT 18/11 A3013 RMK A01 T01790106  RH  062%=      5-min Rain = 0
KDC1 261438Z 15007KT 18/11 A3014 RMK A01 T01790105  RH  062%=      5-min Rain = 0
KDC1 261439Z 14009KT 18/11 A3014 RMK A01 T01810106  RH  062%=      5-min Rain = 0
KDC1 261440Z 14009KT 18/10 A3014 RMK A01 T01820104  RH  060%=      5-min Rain = 0
KDC1 261441Z 14010KT 18/11 A3013 RMK A01 T01820106  RH  061%=      5-min Rain = 0
KDC1 261442Z 13009KT 18/10 A3014 RMK A01 T01820103  RH  060%=      5-min Rain = 0
KDC1 261443Z 13009KT 18/10 A3013 RMK A01 T01810101  RH  060%=      5-min Rain = 0
KDC1 261444Z 13010KT 18/10 A3013 RMK A01 T01800103  RH  061%=      5-min Rain = 0
KDC1 261445Z 13009KT 18/10 A3013 RMK A01 T01800102  RH  060%=      5-min Rain = 0
KDC1 261446Z 15007KT 18/10 A3013 RMK A01 T01810104  RH  061%=      5-min Rain = 0
KDC1 261447Z 15009KT 18/11 A3013 RMK A01 T01820105  RH  061%=      5-min Rain = 0
KDC1 261448Z 15008KT 18/10 A3013 RMK A01 T01820103  RH  060%=      5-min Rain = 0
KDC1 261449Z 14007KT 18/11 A3014 RMK A01 T01820107  RH  062%=      5-min Rain = 0
KDC1 261450Z 14009KT 18/10 A3014 RMK A01 T01840103  RH  059%=      5-min Rain = 0
KDC1 261451Z 14007KT 18/11 A3013 RMK A01 T01840105  RH  060%=      5-min Rain = 0
KDC1 261452Z 15007KT 19/11 A3013 RMK A01 T01850108  RH  061%=      5-min Rain = 0
KDC1 261453Z 14008KT 19/11 A3013 RMK A01 T01870106  RH  059%=      5-min Rain = 0
KDC1 261454Z 14006KT 19/11 A3013 RMK A01 T01870105  RH  059%=      5-min Rain = 0
KDC1 261455Z 16007KT 19/11 A3013 RMK A01 T01880108  RH  060%=      5-min Rain = 0
KDC1 261456Z 15007KT 19/11 A3013 RMK A01 T01890105  RH  058%=      5-min Rain = 0
KDC1 261457Z 14009KT 19/11 A3013 RMK A01 T01880105  RH  059%=      5-min Rain = 0
KDC1 261458Z 14008KT 19/11 A3014 RMK A01 T01880108  RH  060%=      5-min Rain = 0
KDC1 261459Z 15009KT 19/11 A3014 RMK A01 T01880105  RH  058%=      5-min Rain = 0
KDC1 261500Z 14008KT 19/11 A3014 RMK A01 T01880106  RH  059%=      5-min Rain = 0
KDC1 261501Z 12006KT 19/11 A3014 RMK A01 T01890105  RH  058%=      5-min Rain = 0
KDC1 261502Z 13007KT 19/10 A3014 RMK A01 T01890104  RH  058%=      5-min Rain = 0
KDC1 261503Z 14008KT 19/11 A3014 RMK A01 T01900107  RH  058%=      5-min Rain = 0
KDC1 261504Z 14010KT 19/10 A3014 RMK A01 T01900104  RH  057%=      5-min Rain = 0
KDC1 261505Z 14009KT 19/10 A3014 RMK A01 T01890103  RH  057%=      5-min Rain = 0
KDC1 261506Z 13007KT 19/10 A3014 RMK A01 T01890101  RH  057%=      5-min Rain = 0
KDC1 261507Z 15010KT 19/10 A3014 RMK A01 T01880103  RH  058%=      5-min Rain = 0
KDC1 261508Z 15008KT 19/10 A3014 RMK A01 T01880102  RH  057%=      5-min Rain = 0
KDC1 261509Z 14009KT 19/10 A3014 RMK A01 T01890102  RH  057%=      5-min Rain = 0
KDC1 261510Z 15009KT 19/10 A3014 RMK A01 T01890103  RH  057%=      5-min Rain = 0
KDC1 261511Z 15010KT 19/10 A3014 RMK A01 T01900103  RH  057%=      5-min Rain = 0
KDC1 261512Z 15010KT 19/10 A3014 RMK A01 T01900103  RH  057%=      5-min Rain = 0
KDC1 261513Z 14008KT 19/10 A3014 RMK A01 T01900100  RH  056%=      5-min Rain = 0
KDC1 261514Z 14007KT 19/10 A3014 RMK A01 T01900101  RH  056%=      5-min Rain = 0
KDC1 261515Z 13007KT 19/11 A3014 RMK A01 T01910106  RH  058%=      5-min Rain = 0
KDC1 261516Z 13007KT 19/11 A3014 RMK A01 T01930106  RH  057%=      5-min Rain = 0
KDC1 261517Z 15006KT 19/10 A3014 RMK A01 T01940103  RH  056%=      5-min Rain = 0
KDC1 261518Z 13008KT 19/10 A3014 RMK A01 T01940104  RH  056%=      5-min Rain = 0
KDC1 261519Z 13007KT 20/10 A3013 RMK A01 T01950102  RH  055%=      5-min Rain = 0
KDC1 261520Z 13009KT 20/10 A3013 RMK A01 T01950103  RH  055%=      5-min Rain = 0
KDC1 261521Z 14007KT 20/10 A3013 RMK A01 T01960104  RH  055%=      5-min Rain = 0
KDC1 261522Z 13007KT 20/11 A3013 RMK A01 T01960105  RH  056%=      5-min Rain = 0
KDC1 261523Z 14008KT 20/10 A3013 RMK A01 T01960103  RH  055%=      5-min Rain = 0
KDC1 261524Z 14010KT 20/11 A3013 RMK A01 T01960105  RH  056%=      5-min Rain = 0
KDC1 261525Z 14008KT 20/10 A3013 RMK A01 T01960102  RH  054%=      5-min Rain = 0
KDC1 261526Z 15006KT 20/10 A3013 RMK A01 T01960100  RH  054%=      5-min Rain = 0
KDC1 261527Z 13006KT 19/10 A3013 RMK A01 T01940099  RH  054%=      5-min Rain = 0
KDC1 261528Z 11006KT 19/10 A3013 RMK A01 T01940100  RH  055%=      5-min Rain = 0
KDC1 261529Z 13006KT 20/10 A3013 RMK A01 T01960099  RH  053%=      5-min Rain = 0
KDC1 261530Z 13007KT 20/10 A3013 RMK A01 T01970102  RH  054%=      5-min Rain = 0
KDC1 261531Z 14008KT 20/10 A3013 RMK A01 T01960100  RH  054%=      5-min Rain = 0
KDC1 261532Z 13007KT 20/10 A3013 RMK A01 T01950099  RH  054%=      5-min Rain = 0
KDC1 261533Z 11008KT 20/10 A3013 RMK A01 T01950099  RH  054%=      5-min Rain = 0
KDC1 261534Z 11006KT 19/10 A3013 RMK A01 T01940095  RH  053%=      5-min Rain = 0
KDC1 261535Z 11006KT 19/10 A3013 RMK A01 T01930095  RH  053%=      5-min Rain = 0
KDC1 261536Z 12007KT 19/10 A3013 RMK A01 T01940098  RH  054%=      5-min Rain = 0
KDC1 261537Z 12008KT 20/10 A3013 RMK A01 T01950098  RH  053%=      5-min Rain = 0
KDC1 261538Z 14008KT 20/10 A3013 RMK A01 T01970099  RH  053%=      5-min Rain = 0
KDC1 261539Z 12007KT 20/10 A3013 RMK A01 T01980102  RH  054%=      5-min Rain = 0
KDC1 261540Z 14006KT 20/10 A3013 RMK A01 T01980099  RH  053%=      5-min Rain = 0
KDC1 261541Z 14006KT 20/10 A3013 RMK A01 T01980097  RH  052%=      5-min Rain = 0
KDC1 261542Z 13006KT 20/10 A3013 RMK A01 T01980098  RH  052%=      5-min Rain = 0
KDC1 261543Z 11006KT 20/10 A3013 RMK A01 T01980097  RH  052%=      5-min Rain = 0
KDC1 261544Z 14008KT 20/10 A3013 RMK A01 T01990101  RH  053%=      5-min Rain = 0
KDC1 261545Z 15006KT 20/10 A3013 RMK A01 T02010099  RH  052%=      5-min Rain = 0
KDC1 261546Z 14006KT 20/10 A3013 RMK A01 T02000098  RH  052%=      5-min Rain = 0
KDC1 261547Z 12006KT 20/10 A3013 RMK A01 T02000101  RH  053%=      5-min Rain = 0
KDC1 261548Z 11005KT 20/10 A3013 RMK A01 T02010097  RH  051%=      5-min Rain = 0
KDC1 261549Z 11004KT 20/10 A3013 RMK A01 T02000096  RH  051%=      5-min Rain = 0
KDC1 261550Z 11005KT 20/10 A3013 RMK A01 T02000099  RH  052%=      5-min Rain = 0
KDC1 261551Z 11006KT 20/10 A3013 RMK A01 T02020099  RH  051%=      5-min Rain = 0
KDC1 261552Z 13006KT 20/10 A3013 RMK A01 T02040097  RH  050%=      5-min Rain = 0
KDC1 261553Z 13005KT 20/11 A3013 RMK A01 T02040105  RH  053%=      5-min Rain = 0
KDC1 261554Z 11006KT 21/10 A3013 RMK A01 T02060104  RH  052%=      5-min Rain = 0
KDC1 261555Z 11005KT 21/10 A3013 RMK A01 T02070096  RH  049%=      5-min Rain = 0
KDC1 261556Z 11006KT 21/10 A3013 RMK A01 T02070097  RH  049%=      5-min Rain = 0
KDC1 261557Z 12006KT 21/10 A3013 RMK A01 T02060099  RH  050%=      5-min Rain = 0
KDC1 261558Z 11007KT 21/10 A3013 RMK A01 T02050096  RH  050%=      5-min Rain = 0
KDC1 261559Z 11007KT 20/09 A3013 RMK A01 T02030094  RH  050%=      5-min Rain = 0
KDC1 261600Z 12006KT 20/09 A3013 RMK A01 T02010094  RH  050%=      5-min Rain = 0
KDC1 261601Z 11005KT 20/09 A3013 RMK A01 T02020094  RH  050%=      5-min Rain = 0
KDC1 261602Z 11004KT 20/09 A3013 RMK A01 T02030092  RH  049%=      5-min Rain = 0
KDC1 261603Z 13005KT 20/10 A3013 RMK A01 T02040097  RH  050%=      5-min Rain = 0
KDC1 261604Z 12005KT 21/10 A3013 RMK A01 T02050096  RH  049%=      5-min Rain = 0
KDC1 261605Z 11002KT 21/09 A3012 RMK A01 T02050092  RH  048%=      5-min Rain = 0
KDC1 261606Z 15006KT 21/10 A3012 RMK A01 T02060096  RH  049%=      5-min Rain = 0
KDC1 261607Z 16005KT 21/10 A3012 RMK A01 T02070095  RH  049%=      5-min Rain = 0
KDC1 261608Z 16004KT 21/10 A3012 RMK A01 T02060095  RH  049%=      5-min Rain = 0
KDC1 261609Z 15003KT 21/09 A3012 RMK A01 T02050092  RH  048%=      5-min Rain = 0
KDC1 261610Z 14004KT 21/09 A3012 RMK A01 T02050094  RH  049%=      5-min Rain = 0
KDC1 261611Z 13004KT 21/10 A3012 RMK A01 T02060096  RH  049%=      5-min Rain = 0
KDC1 261612Z 13007KT 21/10 A3012 RMK A01 T02070102  RH  051%=      5-min Rain = 0
KDC1 261613Z 13005KT 21/10 A3012 RMK A01 T02090096  RH  048%=      5-min Rain = 0
KDC1 261614Z 11006KT 21/10 A3012 RMK A01 T02100095  RH  048%=      5-min Rain = 0
KDC1 261615Z 10004KT 21/09 A3012 RMK A01 T02100093  RH  047%=      5-min Rain = 0
KDC1 261616Z 09005KT 21/09 A3012 RMK A01 T02090092  RH  047%=      5-min Rain = 0
KDC1 261617Z 10004KT 21/09 A3012 RMK A01 T02080091  RH  047%=      5-min Rain = 0
KDC1 261618Z 10002KT 21/09 A3012 RMK A01 T02090092  RH  047%=      5-min Rain = 0
KDC1 261619Z 11003KT 21/09 A3012 RMK A01 T02110094  RH  047%=      5-min Rain = 0
KDC1 261620Z 11005KT 21/10 A3012 RMK A01 T02120098  RH  048%=      5-min Rain = 0
KDC1 261621Z 10004KT 21/09 A3012 RMK A01 T02140094  RH  046%=      5-min Rain = 0
KDC1 261622Z 10003KT 21/09 A3012 RMK A01 T02110092  RH  046%=      5-min Rain = 0
KDC1 261623Z 10004KT 21/09 A3012 RMK A01 T02100094  RH  047%=      5-min Rain = 0
KDC1 261624Z 10002KT 21/09 A3012 RMK A01 T02100093  RH  047%=      5-min Rain = 0
KDC1 261625Z 14005KT 21/10 A3012 RMK A01 T02110095  RH  047%=      5-min Rain = 0
KDC1 261626Z 13004KT 21/10 A3012 RMK A01 T02110096  RH  048%=      5-min Rain = 0
KDC1 261627Z 12004KT 21/10 A3012 RMK A01 T02120096  RH  047%=      5-min Rain = 0
KDC1 261628Z 11005KT 21/10 A3012 RMK A01 T02120097  RH  048%=      5-min Rain = 0
KDC1 261629Z 10005KT 21/09 A3012 RMK A01 T02130094  RH  046%=      5-min Rain = 0
KDC1 261630Z 10004KT 21/09 A3012 RMK A01 T02120092  RH  046%=      5-min Rain = 0
KDC1 261631Z 10003KT 21/09 A3012 RMK A01 T02130093  RH  046%=      5-min Rain = 0
KDC1 261632Z 10006KT 22/09 A3012 RMK A01 T02150092  RH  046%=      5-min Rain = 0
KDC1 261633Z 10006KT 21/09 A3012 RMK A01 T02140093  RH  046%=      5-min Rain = 0
KDC1 261634Z 09005KT 21/09 A3012 RMK A01 T02140092  RH  046%=      5-min Rain = 0
KDC1 261635Z 09004KT 22/09 A3012 RMK A01 T02150091  RH  045%=      5-min Rain = 0
KDC1 261636Z 09003KT 21/09 A3012 RMK A01 T02140090  RH  045%=      5-min Rain = 0
KDC1 261637Z 09004KT 21/09 A3012 RMK A01 T02140091  RH  045%=      5-min Rain = 0
KDC1 261638Z 10004KT 22/09 A3012 RMK A01 T02150092  RH  045%=      5-min Rain = 0
KDC1 261639Z 12004KT 22/09 A3012 RMK A01 T02150093  RH  045%=      5-min Rain = 0
KDC1 261640Z 15005KT 22/09 A3012 RMK A01 T02160094  RH  046%=      5-min Rain = 0
KDC1 261641Z 15003KT 22/09 A3012 RMK A01 T02160092  RH  045%=      5-min Rain = 0
KDC1 261642Z 17002KT 22/09 A3012 RMK A01 T02160090  RH  044%=      5-min Rain = 0
KDC1 261643Z 17004KT 22/09 A3012 RMK A01 T02160088  RH  044%=      5-min Rain = 0
KDC1 261644Z 17003KT 22/09 A3012 RMK A01 T02150089  RH  045%=      5-min Rain = 0
KDC1 261645Z 26001KT 21/09 A3012 RMK A01 T02130091  RH  046%=      5-min Rain = 0
KDC1 261646Z 10001KT 21/09 A3012 RMK A01 T02140093  RH  046%=      5-min Rain = 0
KDC1 261647Z 07002KT 22/09 A3012 RMK A01 T02160093  RH  045%=      5-min Rain = 0
KDC1 261648Z 11004KT 22/10 A3012 RMK A01 T02170095  RH  045%=      5-min Rain = 0
KDC1 261649Z 10006KT 22/10 A3012 RMK A01 T02200095  RH  045%=      5-min Rain = 0
KDC1 261650Z 10004KT 22/09 A3012 RMK A01 T02190093  RH  045%=      5-min Rain = 0
KDC1 261651Z 10004KT 22/09 A3012 RMK A01 T02200094  RH  045%=      5-min Rain = 0
KDC1 261652Z 11005KT 22/10 A3012 RMK A01 T02210096  RH  045%=      5-min Rain = 0
KDC1 261653Z 09003KT 22/09 A3012 RMK A01 T02210092  RH  044%=      5-min Rain = 0
KDC1 261654Z 11004KT 22/09 A3012 RMK A01 T02200093  RH  044%=      5-min Rain = 0
KDC1 261655Z 11003KT 22/09 A3012 RMK A01 T02190094  RH  045%=      5-min Rain = 0
KDC1 261656Z 10002KT 22/09 A3012 RMK A01 T02190093  RH  045%=      5-min Rain = 0
KDC1 261657Z 09003KT 22/09 A3012 RMK A01 T02200093  RH  044%=      5-min Rain = 0
KDC1 261658Z 11004KT 22/10 A3012 RMK A01 T02210095  RH  045%=      5-min Rain = 0
KDC1 261659Z 11005KT 22/09 A3012 RMK A01 T02210093  RH  044%=      5-min Rain = 0
KDC1 261700Z 11003KT 22/09 A3012 RMK A01 T02200093  RH  044%=      5-min Rain = 0
KDC1 261701Z 10003KT 22/09 A3012 RMK A01 T02200091  RH  044%=      5-min Rain = 0
KDC1 261702Z 10003KT 22/09 A3012 RMK A01 T02210092  RH  044%=      5-min Rain = 0
KDC1 261703Z 13004KT 22/10 A3012 RMK A01 T02230095  RH  044%=      5-min Rain = 0
KDC1 261704Z 13004KT 23/10 A3012 RMK A01 T02250102  RH  046%=      5-min Rain = 0
KDC1 261705Z 13004KT 23/10 A3012 RMK A01 T02270100  RH  045%=      5-min Rain = 0
KDC1 261706Z 12005KT 23/10 A3012 RMK A01 T02270095  RH  043%=      5-min Rain = 0
KDC1 261707Z 13004KT 23/10 A3012 RMK A01 T02270097  RH  044%=      5-min Rain = 0
KDC1 261708Z 13006KT 23/10 A3012 RMK A01 T02280097  RH  044%=      5-min Rain = 0
KDC1 261709Z 12005KT 23/09 A3012 RMK A01 T02280091  RH  042%=      5-min Rain = 0
KDC1 261710Z 15005KT 23/10 A3012 RMK A01 T02270096  RH  043%=      5-min Rain = 0
KDC1 261711Z 17005KT 23/09 A3012 RMK A01 T02270092  RH  042%=      5-min Rain = 0
KDC1 261712Z 16005KT 23/09 A3012 RMK A01 T02250089  RH  042%=      5-min Rain = 0
KDC1 261713Z 18005KT 22/09 A3012 RMK A01 T02240089  RH  042%=      5-min Rain = 0
KDC1 261714Z 17004KT 22/09 A3012 RMK A01 T02230089  RH  042%=      5-min Rain = 0
KDC1 261715Z 20003KT 22/09 A3012 RMK A01 T02240090  RH  043%=      5-min Rain = 0
KDC1 261716Z 20003KT 22/09 A3012 RMK A01 T02240089  RH  042%=      5-min Rain = 0
KDC1 261717Z 16003KT 23/09 A3012 RMK A01 T02260092  RH  042%=      5-min Rain = 0
KDC1 261718Z 12004KT 23/09 A3012 RMK A01 T02280094  RH  042%=      5-min Rain = 0
KDC1 261719Z 13005KT 23/09 A3012 RMK A01 T02290090  RH  041%=      5-min Rain = 0
KDC1 261720Z 16004KT 23/09 A3012 RMK A01 T02290087  RH  040%=      5-min Rain = 0
KDC1 261721Z 15003KT 23/08 A3012 RMK A01 T02270084  RH  040%=      5-min Rain = 0
KDC1 261722Z 13002KT 23/08 A3012 RMK A01 T02260084  RH  040%=      5-min Rain = 0
KDC1 261723Z 13005KT 23/09 A3012 RMK A01 T02270087  RH  041%=      5-min Rain = 0
KDC1 261724Z 13007KT 23/09 A3012 RMK A01 T02290091  RH  041%=      5-min Rain = 0
KDC1 261725Z 11004KT 23/09 A3012 RMK A01 T02300086  RH  040%=      5-min Rain = 0
KDC1 261726Z 10006KT 23/08 A3011 RMK A01 T02300084  RH  039%=      5-min Rain = 0
KDC1 261727Z 10006KT 23/08 A3011 RMK A01 T02290084  RH  039%=      5-min Rain = 0
KDC1 261728Z 10005KT 23/09 A3011 RMK A01 T02280085  RH  040%=      5-min Rain = 0
KDC1 261729Z 11004KT 23/09 A3011 RMK A01 T02280085  RH  040%=      5-min Rain = 0
KDC1 261730Z 09003KT 23/08 A3011 RMK A01 T02280083  RH  039%=      5-min Rain = 0
KDC1 261731Z 09004KT 23/09 A3011 RMK A01 T02270085  RH  040%=      5-min Rain = 0
KDC1 261732Z 08003KT 23/08 A3011 RMK A01 T02280084  RH  040%=      5-min Rain = 0
KDC1 261733Z 10004KT 23/09 A3011 RMK A01 T02300086  RH  040%=      5-min Rain = 0
KDC1 261734Z 11007KT 23/09 A3011 RMK A01 T02320089  RH  040%=      5-min Rain = 0
KDC1 261735Z 11006KT 23/09 A3011 RMK A01 T02320087  RH  039%=      5-min Rain = 0
KDC1 261736Z 14007KT 23/09 A3011 RMK A01 T02330086  RH  039%=      5-min Rain = 0
KDC1 261737Z 14007KT 23/09 A3011 RMK A01 T02340087  RH  039%=      5-min Rain = 0
KDC1 261738Z 16005KT 23/08 A3011 RMK A01 T02320084  RH  039%=      5-min Rain = 0
KDC1 261739Z 17005KT 23/09 A3011 RMK A01 T02320088  RH  040%=      5-min Rain = 0
KDC1 261740Z 14005KT 23/09 A3011 RMK A01 T02340087  RH  039%=      5-min Rain = 0
KDC1 261741Z 14003KT 23/08 A3011 RMK A01 T02330084  RH  038%=      5-min Rain = 0
KDC1 261742Z 13002KT 23/09 A3011 RMK A01 T02320085  RH  039%=      5-min Rain = 0
KDC1 261743Z 13002KT 23/09 A3011 RMK A01 T02320085  RH  039%=      5-min Rain = 0
KDC1 261744Z 14004KT 23/09 A3011 RMK A01 T02320085  RH  039%=      5-min Rain = 0
KDC1 261745Z 14004G9KT 23/09 A3011 RMK A01 T02320088  RH  040%=      5-min Rain = 0
KDC1 261746Z 15007KT 23/09 A3011 RMK A01 T02330091  RH  041%=      5-min Rain = 0
KDC1 261747Z 14005KT 24/09 A3011 RMK A01 T02350089  RH  039%=      5-min Rain = 0
KDC1 261748Z 15004KT 24/09 A3011 RMK A01 T02370088  RH  039%=      5-min Rain = 0
KDC1 261749Z 13008KT 24/09 A3011 RMK A01 T02390088  RH  038%=      5-min Rain = 0
KDC1 261750Z 13007KT 24/08 A3011 RMK A01 T02400081  RH  036%=      5-min Rain = 0
KDC1 261751Z 14006KT 24/08 A3011 RMK A01 T02380079  RH  036%=      5-min Rain = 0
KDC1 261752Z 15007KT 24/09 A3011 RMK A01 T02380085  RH  038%=      5-min Rain = 0
KDC1 261753Z 12008KT 24/09 A3011 RMK A01 T02380085  RH  038%=      5-min Rain = 0
KDC1 261754Z 11006KT 24/08 A3011 RMK A01 T02370077  RH  036%=      5-min Rain = 0
KDC1 261755Z 11010KT 24/08 A301 RMK A01 T02360081  RH  037%=      5-min Rain = 0
KDC1 261756Z 14009KT 24/09 A301 RMK A01 T02370087  RH  038%=      5-min Rain = 0
KDC1 261757Z 13005KT 24/09 A301 RMK A01 T02400085  RH  037%=      5-min Rain = 0
KDC1 261758Z 12005KT 24/08 A301 RMK A01 T02420081  RH  036%=      5-min Rain = 0
KDC1 261759Z 12005KT 24/08 A301 RMK A01 T02410081  RH  036%=      5-min Rain = 0
KDC1 261800Z 10006KT 24/08 A301 RMK A01 T02420082  RH  036%=      5-min Rain = 0
KDC1 261801Z 11004KT 24/08 A301 RMK A01 T02410078  RH  035%=      5-min Rain = 0
KDC1 261802Z 10005G10KT 24/08 A301 RMK A01 T02380079  RH  036%=      5-min Rain = 0
KDC1 261803Z 10007KT 24/08 A301 RMK A01 T02390076  RH  035%=      5-min Rain = 0
KDC1 261804Z 10007KT 24/07 A301 RMK A01 T02420074  RH  034%=      5-min Rain = 0
KDC1 261805Z 12007KT 24/08 A301 RMK A01 T02440081  RH  035%=      5-min Rain = 0
KDC1 261806Z 12009KT 24/09 A301 RMK A01 T02440093  RH  038%=      5-min Rain = 0
KDC1 261807Z 15009KT 24/09 A301 RMK A01 T02430089  RH  037%=      5-min Rain = 0
KDC1 261808Z 18005KT 24/09 A301 RMK A01 T02410088  RH  038%=      5-min Rain = 0
KDC1 261809Z 19007KT 24/08 A301 RMK A01 T02410083  RH  036%=      5-min Rain = 0
KDC1 261810Z 17005KT 24/08 A301 RMK A01 T02410082  RH  036%=      5-min Rain = 0
KDC1 261811Z 17006KT 24/09 A301 RMK A01 T02430093  RH  038%=      5-min Rain = 0
KDC1 261812Z 16006KT 25/09 A301 RMK A01 T02460086  RH  036%=      5-min Rain = 0
KDC1 261813Z 16007KT 25/08 A3009 RMK A01 T02450082  RH  035%=      5-min Rain = 0
KDC1 261814Z 17006KT 25/09 A3009 RMK A01 T02450088  RH  037%=      5-min Rain = 0
KDC1 261815Z 17007KT 25/09 A3009 RMK A01 T02450087  RH  037%=      5-min Rain = 0
KDC1 261816Z 18007KT 25/09 A3009 RMK A01 T02450086  RH  036%=      5-min Rain = 0
KDC1 261817Z 19005KT 24/09 A3009 RMK A01 T02420086  RH  037%=      5-min Rain = 0
KDC1 261818Z 17004KT 24/09 A3009 RMK A01 T02430085  RH  037%=      5-min Rain = 0
KDC1 261819Z 19005KT 24/09 A3009 RMK A01 T02440085  RH  036%=      5-min Rain = 0
KDC1 261820Z 19005KT 24/08 A3009 RMK A01 T02430075  RH  034%=      5-min Rain = 0
KDC1 261821Z 19003KT 24/08 A3009 RMK A01 T02400077  RH  035%=      5-min Rain = 0
KDC1 261822Z 21002KT 24/08 A3009 RMK A01 T02400075  RH  035%=      5-min Rain = 0
KDC1 261823Z 27000KT 24/08 A3009 RMK A01 T02410075  RH  034%=      5-min Rain = 0
KDC1 261824Z 36001KT 24/07 A3009 RMK A01 T02420074  RH  034%=      5-min Rain = 0
KDC1 261825Z 00000KT 24/08 A3009 RMK A01 T02430075  RH  034%=      5-min Rain = 0
KDC1 261826Z 15002KT 25/08 A3009 RMK A01 T02450080  RH  035%=      5-min Rain = 0
KDC1 261827Z 15003KT 25/08 A3009 RMK A01 T02480083  RH  035%=      5-min Rain = 0
KDC1 261828Z 16005KT 25/09 A3009 RMK A01 T02490091  RH  037%=      5-min Rain = 0
KDC1 261829Z 17007KT 25/09 A3009 RMK A01 T02520094  RH  037%=      5-min Rain = 0
KDC1 261830Z 17005KT 25/09 A3009 RMK A01 T02490085  RH  035%=      5-min Rain = 0
KDC1 261831Z 14002KT 25/08 A3009 RMK A01 T02460081  RH  035%=      5-min Rain = 0
KDC1 261832Z 15005G10KT 25/08 A3009 RMK A01 T02450084  RH  036%=      5-min Rain = 0
KDC1 261833Z 16006KT 25/09 A3009 RMK A01 T02480086  RH  036%=      5-min Rain = 0
KDC1 261834Z 19004KT 25/08 A3008 RMK A01 T02480082  RH  035%=      5-min Rain = 0
KDC1 261835Z 19002KT 25/08 A3008 RMK A01 T02480083  RH  035%=      5-min Rain = 0
KDC1 261836Z 16004KT 25/08 A3008 RMK A01 T02500082  RH  034%=      5-min Rain = 0
KDC1 261837Z 16004KT 25/08 A3008 RMK A01 T02500081  RH  034%=      5-min Rain = 0
KDC1 261838Z 14004KT 25/08 A3008 RMK A01 T02510082  RH  034%=      5-min Rain = 0
KDC1 261839Z 14006KT 25/08 A3008 RMK A01 T02500080  RH  034%=      5-min Rain = 0
KDC1 261840Z 15004KT 25/08 A3008 RMK A01 T02490075  RH  033%=      5-min Rain = 0
KDC1 261841Z 17006KT 25/07 A3008 RMK A01 T02500073  RH  032%=      5-min Rain = 0
KDC1 261842Z 19005KT 25/08 A3008 RMK A01 T02500076  RH  033%=      5-min Rain = 0
KDC1 261843Z 19007KT 25/07 A3008 RMK A01 T02500073  RH  032%=      5-min Rain = 0
KDC1 261844Z 13006KT 25/07 A3008 RMK A01 T02500074  RH  033%=      5-min Rain = 0
KDC1 261845Z 14006KT 25/07 A3008 RMK A01 T02530074  RH  032%=      5-min Rain = 0
KDC1 261846Z 13007KT 25/08 A3007 RMK A01 T02540078  RH  033%=      5-min Rain = 0
KDC1 261847Z 15003KT 25/07 A3007 RMK A01 T02530067  RH  030%=      5-min Rain = 0
KDC1 261848Z 15005KT 25/08 A3007 RMK A01 T02540075  RH  032%=      5-min Rain = 0
KDC1 261849Z 12004KT 26/07 A3007 RMK A01 T02570068  RH  030%=      5-min Rain = 0
KDC1 261850Z 14003KT 26/06 A3007 RMK A01 T02580063  RH  029%=      5-min Rain = 0
KDC1 261851Z 17006G12KT 26/07 A3007 RMK A01 T02590067  RH  029%=      5-min Rain = 0
KDC1 261852Z 18007KT 26/07 A3007 RMK A01 T02590068  RH  030%=      5-min Rain = 0
KDC1 261853Z 19006KT 26/06 A3007 RMK A01 T02560062  RH  029%=      5-min Rain = 0
KDC1 261854Z 17005KT 25/07 A3007 RMK A01 T02540068  RH  030%=      5-min Rain = 0
KDC1 261855Z 16008KT 26/07 A3007 RMK A01 T02570074  RH  031%=      5-min Rain = 0
KDC1 261856Z 17008KT 26/07 A3007 RMK A01 T02590071  RH  030%=      5-min Rain = 0
KDC1 261857Z 16008KT 26/07 A3007 RMK A01 T02580071  RH  030%=      5-min Rain = 0
KDC1 261858Z 17007KT 26/07 A3007 RMK A01 T02590069  RH  030%=      5-min Rain = 0
KDC1 261859Z 16007KT 26/07 A3007 RMK A01 T02590066  RH  029%=      5-min Rain = 0
KDC1 261900Z 15006KT 26/06 A3007 RMK A01 T02590060  RH  028%=      5-min Rain = 0
KDC1 261901Z 16006KT 26/07 A3007 RMK A01 T02600071  RH  030%=      5-min Rain = 0
KDC1 261902Z 18002KT 26/07 A3007 RMK A01 T02620065  RH  028%=      5-min Rain = 0
KDC1 261903Z 18005KT 26/06 A3007 RMK A01 T02620059  RH  027%=      5-min Rain = 0
KDC1 261904Z 19005KT 26/06 A3007 RMK A01 T02600056  RH  027%=      5-min Rain = 0
KDC1 261905Z 19005KT 26/06 A3007 RMK A01 T02580060  RH  028%=      5-min Rain = 0
KDC1 261906Z 16005KT 26/07 A3006 RMK A01 T02580066  RH  029%=      5-min Rain = 0
KDC1 261907Z 17005KT 26/07 A3006 RMK A01 T02590065  RH  029%=      5-min Rain = 0
KDC1 261908Z 18006KT 26/06 A3006 RMK A01 T02590064  RH  029%=      5-min Rain = 0
KDC1 261909Z 20006KT 26/06 A3006 RMK A01 T02600058  RH  027%=      5-min Rain = 0
KDC1 261910Z 18006KT 26/06 A3006 RMK A01 T02610057  RH  027%=      5-min Rain = 0
KDC1 261911Z 16006KT 26/07 A3006 RMK A01 T02620067  RH  029%=      5-min Rain = 0
KDC1 261912Z 17007KT 26/07 A3006 RMK A01 T02630066  RH  028%=      5-min Rain = 0
KDC1 261913Z 16005KT 26/05 A3006 RMK A01 T02630051  RH  026%=      5-min Rain = 0
KDC1 261914Z 16004KT 26/05 A3006 RMK A01 T02600048  RH  026%=      5-min Rain = 0
KDC1 261915Z 18004KT 26/05 A3006 RMK A01 T02600047  RH  025%=      5-min Rain = 0
KDC1 261916Z 15005KT 26/06 A3006 RMK A01 T02610057  RH  027%=      5-min Rain = 0
KDC1 261917Z 16007KT 26/07 A3006 RMK A01 T02620065  RH  029%=      5-min Rain = 0
KDC1 261918Z 16006KT 26/06 A3006 RMK A01 T02630063  RH  028%=      5-min Rain = 0
KDC1 261919Z 17006KT 26/07 A3006 RMK A01 T02630065  RH  028%=      5-min Rain = 0
KDC1 261920Z 17005KT 26/06 A3006 RMK A01 T02630063  RH  028%=      5-min Rain = 0
KDC1 261921Z 17003KT 26/06 A3005 RMK A01 T02630059  RH  027%=      5-min Rain = 0
KDC1 261922Z 19004KT 26/06 A3005 RMK A01 T02620060  RH  027%=      5-min Rain = 0
KDC1 261923Z 16004KT 26/06 A3005 RMK A01 T02620060  RH  028%=      5-min Rain = 0
KDC1 261924Z 16005G10KT 26/06 A3005 RMK A01 T02620055  RH  027%=      5-min Rain = 0
KDC1 261925Z 17007KT 26/06 A3005 RMK A01 T02620063  RH  028%=      5-min Rain = 0
KDC1 261926Z 18005KT 26/07 A3005 RMK A01 T02600067  RH  029%=      5-min Rain = 0
KDC1 261927Z 16006KT 26/07 A3005 RMK A01 T02590072  RH  030%=      5-min Rain = 0
KDC1 261928Z 15006KT 26/08 A3005 RMK A01 T02630080  RH  031%=      5-min Rain = 0
KDC1 261929Z 17007KT 27/08 A3005 RMK A01 T02680080  RH  030%=      5-min Rain = 0
KDC1 261930Z 15006KT 27/08 A3005 RMK A01 T02690080  RH  030%=      5-min Rain = 0
KDC1 261931Z 13005KT 27/07 A3005 RMK A01 T02690071  RH  028%=      5-min Rain = 0
KDC1 261932Z 17004KT 27/07 A3005 RMK A01 T02700070  RH  028%=      5-min Rain = 0
KDC1 261933Z 16004KT 27/08 A3005 RMK A01 T02690076  RH  029%=      5-min Rain = 0
KDC1 261934Z 15004KT 27/06 A3005 RMK A01 T02700061  RH  027%=      5-min Rain = 0
KDC1 261935Z 19004KT 27/06 A3005 RMK A01 T02690064  RH  027%=      5-min Rain = 0
KDC1 261936Z 20005KT 27/06 A3005 RMK A01 T02690062  RH  027%=      5-min Rain = 0
KDC1 261937Z 15003KT 27/06 A3004 RMK A01 T02680060  RH  026%=      5-min Rain = 0
KDC1 261938Z 15007KT 27/07 A3004 RMK A01 T02670073  RH  029%=      5-min Rain = 0
KDC1 261939Z 13007KT 27/07 A3004 RMK A01 T02670067  RH  028%=      5-min Rain = 0
KDC1 261940Z 13005KT 27/06 A3004 RMK A01 T02660059  RH  027%=      5-min Rain = 0
KDC1 261941Z 17005KT 27/07 A3004 RMK A01 T02680070  RH  028%=      5-min Rain = 0
KDC1 261942Z 14003KT 27/05 A3004 RMK A01 T02680053  RH  025%=      5-min Rain = 0
KDC1 261943Z 13004KT 27/05 A3004 RMK A01 T02650053  RH  026%=      5-min Rain = 0
KDC1 261944Z 15004KT 26/06 A3004 RMK A01 T02640060  RH  027%=      5-min Rain = 0
KDC1 261945Z 16006KT 27/07 A3004 RMK A01 T02650073  RH  030%=      5-min Rain = 0
KDC1 261946Z 14007KT 27/08 A3004 RMK A01 T02690075  RH  029%=      5-min Rain = 0
KDC1 261947Z 14006KT 27/07 A3004 RMK A01 T02690065  RH  027%=      5-min Rain = 0
KDC1 261948Z 14004KT 27/07 A3004 RMK A01 T02680066  RH  028%=      5-min Rain = 0
KDC1 261949Z 16006KT 27/07 A3004 RMK A01 T02670067  RH  028%=      5-min Rain = 0
KDC1 261950Z 15006KT 27/07 A3003 RMK A01 T02670070  RH  029%=      5-min Rain = 0
KDC1 261951Z 14008KT 27/07 A3003 RMK A01 T02680073  RH  029%=      5-min Rain = 0
KDC1 261952Z 14006KT 27/06 A3003 RMK A01 T02670063  RH  027%=      5-min Rain = 0
KDC1 261953Z 14004KT 27/07 A3003 RMK A01 T02650071  RH  029%=      5-min Rain = 0
KDC1 261954Z 16005G10KT 27/07 A3003 RMK A01 T02680074  RH  029%=      5-min Rain = 0
KDC1 261955Z 17006KT 27/06 A3003 RMK A01 T02690063  RH  027%=      5-min Rain = 0
KDC1 261956Z 17006KT 27/06 A3003 RMK A01 T02680059  RH  026%=      5-min Rain = 0
KDC1 261957Z 13010KT 27/07 A3003 RMK A01 T02650069  RH  029%=      5-min Rain = 0
KDC1 261958Z 15010KT 27/07 A3003 RMK A01 T02670071  RH  029%=      5-min Rain = 0
KDC1 261959Z 16006KT 27/06 A3003 RMK A01 T02680063  RH  027%=      5-min Rain = 0
KDC1 262000Z 13003KT 27/06 A3003 RMK A01 T02650056  RH  026%=      5-min Rain = 0
KDC1 262001Z 13007KT 27/06 A3003 RMK A01 T02670064  RH  027%=      5-min Rain = 0
KDC1 262002Z 13004KT 27/06 A3003 RMK A01 T02690061  RH  027%=      5-min Rain = 0
KDC1 262003Z 15003KT 27/06 A3003 RMK A01 T02690060  RH  026%=      5-min Rain = 0
KDC1 262004Z 16005KT 27/07 A3003 RMK A01 T02680065  RH  027%=      5-min Rain = 0
KDC1 262005Z 18003KT 27/06 A3003 RMK A01 T02690063  RH  027%=      5-min Rain = 0
KDC1 262006Z 14005KT 27/06 A3003 RMK A01 T02700061  RH  026%=      5-min Rain = 0
KDC1 262007Z 14005KT 27/06 A3003 RMK A01 T02700057  RH  026%=      5-min Rain = 0
KDC1 262008Z 15004KT 27/06 A3003 RMK A01 T02680057  RH  026%=      5-min Rain = 0
KDC1 262009Z 14006KT 27/06 A3003 RMK A01 T02690061  RH  027%=      5-min Rain = 0
KDC1 262010Z 15004KT 27/06 A3003 RMK A01 T02690059  RH  026%=      5-min Rain = 0
KDC1 262011Z 11002KT 27/06 A3003 RMK A01 T02690059  RH  026%=      5-min Rain = 0
KDC1 262012Z 11002KT 27/06 A3003 RMK A01 T02710058  RH  026%=      5-min Rain = 0
KDC1 262013Z 15004KT 27/06 A3003 RMK A01 T02720059  RH  026%=      5-min Rain = 0
KDC1 262014Z 16006G11KT 27/07 A3003 RMK A01 T02720065  RH  027%=      5-min Rain = 0
KDC1 262015Z 14006KT 27/07 A3003 RMK A01 T02720067  RH  027%=      5-min Rain = 0
KDC1 262016Z 14004KT 27/07 A3003 RMK A01 T02730069  RH  027%=      5-min Rain = 0
KDC1 262017Z 11003KT 28/06 A3003 RMK A01 T02750057  RH  025%=      5-min Rain = 0
KDC1 262018Z 14003KT 27/05 A3003 RMK A01 T02730053  RH  025%=      5-min Rain = 0
KDC1 262019Z 16002KT 27/06 A3002 RMK A01 T02730055  RH  025%=      5-min Rain = 0
KDC1 262020Z 15004KT 27/06 A3002 RMK A01 T02740059  RH  025%=      5-min Rain = 0
KDC1 262021Z 15006KT 27/07 A3002 RMK A01 T02740065  RH  026%=      5-min Rain = 0
KDC1 262022Z 14006KT 28/07 A3002 RMK A01 T02750065  RH  026%=      5-min Rain = 0
KDC1 262023Z 14005KT 28/06 A3002 RMK A01 T02750060  RH  026%=      5-min Rain = 0
KDC1 262024Z 15005KT 27/06 A3002 RMK A01 T02740062  RH  026%=      5-min Rain = 0
KDC1 262025Z 11003KT 28/06 A3002 RMK A01 T02750059  RH  025%=      5-min Rain = 0
KDC1 262026Z 12004KT 28/06 A3002 RMK A01 T02760058  RH  025%=      5-min Rain = 0
KDC1 262027Z 16008KT 28/07 A3002 RMK A01 T02760068  RH  027%=      5-min Rain = 0
KDC1 262028Z 16008KT 28/06 A3002 RMK A01 T02750064  RH  026%=      5-min Rain = 0
KDC1 262029Z 16006KT 27/06 A3002 RMK A01 T02740063  RH  026%=      5-min Rain = 0
KDC1 262030Z 16007KT 28/07 A3002 RMK A01 T02750069  RH  027%=      5-min Rain = 0
KDC1 262031Z 15005KT 28/07 A3002 RMK A01 T02750065  RH  026%=      5-min Rain = 0
KDC1 262032Z 13006KT 28/08 A3002 RMK A01 T02750076  RH  028%=      5-min Rain = 0
KDC1 262033Z 12006KT 28/07 A3002 RMK A01 T02780067  RH  026%=      5-min Rain = 0
KDC1 262034Z 12005KT 28/07 A3002 RMK A01 T02780068  RH  026%=      5-min Rain = 0
KDC1 262035Z 12006KT 28/07 A3002 RMK A01 T02790070  RH  027%=      5-min Rain = 0
KDC1 262036Z 12007KT 28/07 A3002 RMK A01 T02800066  RH  026%=      5-min Rain = 0
KDC1 262037Z 11006KT 28/07 A3002 RMK A01 T02800067  RH  026%=      5-min Rain = 0
KDC1 262038Z 14007KT 28/07 A3002 RMK A01 T02810066  RH  026%=      5-min Rain = 0
KDC1 262039Z 15006KT 28/07 A3002 RMK A01 T02820074  RH  027%=      5-min Rain = 0
KDC1 262040Z 16004KT 28/08 A3001 RMK A01 T02800077  RH  028%=      5-min Rain = 0
KDC1 262041Z 16004KT 28/07 A3001 RMK A01 T02790067  RH  026%=      5-min Rain = 0
KDC1 262042Z 15006KT 28/07 A3001 RMK A01 T02790068  RH  026%=      5-min Rain = 0
KDC1 262043Z 13003KT 28/06 A3001 RMK A01 T02780062  RH  025%=      5-min Rain = 0
KDC1 262044Z 09001KT 28/06 A3001 RMK A01 T02780059  RH  025%=      5-min Rain = 0
KDC1 262045Z 15003KT 28/07 A3001 RMK A01 T02800070  RH  027%=      5-min Rain = 0
KDC1 262046Z 16006KT 28/08 A3001 RMK A01 T02830076  RH  027%=      5-min Rain = 0
KDC1 262047Z 18006KT 28/07 A3001 RMK A01 T02830073  RH  027%=      5-min Rain = 0
KDC1 262048Z 19004KT 28/06 A3001 RMK A01 T02810062  RH  025%=      5-min Rain = 0
KDC1 262049Z 21004KT 28/06 A3001 RMK A01 T02800062  RH  025%=      5-min Rain = 0
KDC1 262050Z 24005KT 28/07 A3001 RMK A01 T02830065  RH  025%=      5-min Rain = 0
KDC1 262051Z 24007KT 29/06 A3001 RMK A01 T02860064  RH  025%=      5-min Rain = 0
KDC1 262052Z 20005KT 29/06 A3001 RMK A01 T02870056  RH  023%=      5-min Rain = 0
KDC1 262053Z 21004KT 28/06 A3001 RMK A01 T02830055  RH  023%=      5-min Rain = 0
KDC1 262054Z 23003KT 28/06 A3001 RMK A01 T02810056  RH  024%=      5-min Rain = 0
KDC1 262055Z 23003KT 28/05 A3001 RMK A01 T02820054  RH  023%=      5-min Rain = 0
KDC1 262056Z 24004KT 28/05 A3001 RMK A01 T02810054  RH  024%=      5-min Rain = 0
KDC1 262057Z 22002KT 28/05 A3001 RMK A01 T02820054  RH  023%=      5-min Rain = 0
KDC1 262058Z 19001KT 28/06 A3001 RMK A01 T02820055  RH  024%=      5-min Rain = 0
KDC1 262059Z 27004KT 28/06 A3001 RMK A01 T02840058  RH  024%=      5-min Rain = 0
KDC1 262100Z 28003KT 29/06 A3001 RMK A01 T02870055  RH  023%=      5-min Rain = 0
KDC1 262101Z 28005KT 29/05 A30 RMK A01 T02870054  RH  023%=      5-min Rain = 0
KDC1 262102Z 32004KT 28/05 A30 RMK A01 T02830053  RH  023%=      5-min Rain = 0
KDC1 262103Z 34004KT 28/05 A30 RMK A01 T02790053  RH  024%=      5-min Rain = 0
KDC1 262104Z 22004KT 28/06 A30 RMK A01 T02770055  RH  024%=      5-min Rain = 0
KDC1 262105Z 20005KT 28/06 A30 RMK A01 T02770056  RH  025%=      5-min Rain = 0
KDC1 262106Z 23002KT 28/06 A30 RMK A01 T02770056  RH  024%=      5-min Rain = 0
KDC1 262107Z 35001KT 28/06 A30 RMK A01 T02810057  RH  024%=      5-min Rain = 0
KDC1 262108Z 11002KT 29/06 A30 RMK A01 T02850057  RH  024%=      5-min Rain = 0
KDC1 262109Z 17002KT 29/06 A30 RMK A01 T02860055  RH  023%=      5-min Rain = 0
KDC1 262110Z 16004KT 29/07 A30 RMK A01 T02860066  RH  025%=      5-min Rain = 0
KDC1 262111Z 16004KT 29/08 A30 RMK A01 T02880079  RH  027%=      5-min Rain = 0
KDC1 262112Z 15007KT 29/09 A30 RMK A01 T02900087  RH  028%=      5-min Rain = 0
KDC1 262113Z 16005KT 29/08 A30 RMK A01 T02890080  RH  027%=      5-min Rain = 0
KDC1 262114Z 17005KT 29/06 A30 RMK A01 T02890060  RH  024%=      5-min Rain = 0
KDC1 262115Z 17004KT 29/05 A30 RMK A01 T02860053  RH  023%=      5-min Rain = 0
KDC1 262116Z 21004KT 28/05 A30 RMK A01 T02840051  RH  023%=      5-min Rain = 0
KDC1 262117Z 27003KT 29/05 A30 RMK A01 T02850051  RH  023%=      5-min Rain = 0
KDC1 262118Z 29002KT 29/05 A30 RMK A01 T02860048  RH  022%=      5-min Rain = 0
KDC1 262119Z 29003KT 29/05 A2999 RMK A01 T02850047  RH  022%=      5-min Rain = 0
KDC1 262120Z 26005KT 29/05 A2999 RMK A01 T02860052  RH  023%=      5-min Rain = 0
KDC1 262121Z 27003KT 29/05 A2999 RMK A01 T02880050  RH  022%=      5-min Rain = 0
KDC1 262122Z 26001KT 29/05 A2999 RMK A01 T02880049  RH  022%=      5-min Rain = 0
KDC1 262123Z 23002KT 29/05 A2999 RMK A01 T02890050  RH  022%=      5-min Rain = 0
KDC1 262124Z 28003KT 29/05 A2999 RMK A01 T02930049  RH  021%=      5-min Rain = 0
KDC1 262125Z 28003KT 29/05 A2999 RMK A01 T02920049  RH  021%=      5-min Rain = 0
KDC1 262126Z 26003KT 29/05 A2999 RMK A01 T02900050  RH  022%=      5-min Rain = 0
KDC1 262127Z 30002KT 29/05 A2999 RMK A01 T02910051  RH  022%=      5-min Rain = 0
KDC1 262128Z 25004KT 29/05 A2999 RMK A01 T02920051  RH  022%=      5-min Rain = 0
KDC1 262129Z 35003KT 29/05 A2999 RMK A01 T02920048  RH  021%=      5-min Rain = 0
KDC1 262130Z 02001KT 29/05 A2999 RMK A01 T02910049  RH  021%=      5-min Rain = 0
KDC1 262131Z 02001KT 29/05 A2999 RMK A01 T02890048  RH  022%=      5-min Rain = 0
KDC1 262132Z 02002KT 29/05 A2999 RMK A01 T02910050  RH  022%=      5-min Rain = 0
KDC1 262133Z 30003KT 30/05 A2999 RMK A01 T02950051  RH  021%=      5-min Rain = 0
KDC1 262134Z 33003KT 29/05 A2998 RMK A01 T02940050  RH  021%=      5-min Rain = 0
KDC1 262135Z 02002KT 29/05 A2998 RMK A01 T02930050  RH  021%=      5-min Rain = 0
KDC1 262136Z 06001KT 29/05 A2998 RMK A01 T02910050  RH  022%=      5-min Rain = 0
KDC1 262137Z 18002KT 29/06 A2998 RMK A01 T02920055  RH  022%=      5-min Rain = 0
KDC1 262138Z 16004KT 29/07 A2998 RMK A01 T02940068  RH  024%=      5-min Rain = 0
KDC1 262139Z 14004KT 29/07 A2998 RMK A01 T02940069  RH  024%=      5-min Rain = 0
KDC1 262140Z 14004KT 29/06 A2998 RMK A01 T02910056  RH  023%=      5-min Rain = 0
KDC1 262141Z 14006KT 29/06 A2998 RMK A01 T02880063  RH  024%=      5-min Rain = 0
KDC1 262142Z 14005KT 29/07 A2998 RMK A01 T02870067  RH  025%=      5-min Rain = 0
KDC1 262143Z 12004KT 29/06 A2998 RMK A01 T02890059  RH  023%=      5-min Rain = 0
KDC1 262144Z 13004KT 29/07 A2998 RMK A01 T02910069  RH  025%=      5-min Rain = 0
KDC1 262145Z 12003KT 29/06 A2998 RMK A01 T02940059  RH  023%=      5-min Rain = 0
KDC1 262146Z 13002KT 30/06 A2998 RMK A01 T02980061  RH  022%=      5-min Rain = 0
KDC1 262147Z 14004KT 30/07 A2998 RMK A01 T02990069  RH  024%=      5-min Rain = 0
KDC1 262148Z 13002KT 30/06 A2998 RMK A01 T02970057  RH  022%=      5-min Rain = 0
KDC1 262149Z 13004KT 30/06 A2998 RMK A01 T02960062  RH  023%=      5-min Rain = 0
KDC1 262150Z 15006KT 30/08 A2998 RMK A01 T02950080  RH  026%=      5-min Rain = 0
KDC1 262151Z 15007KT 29/08 A2998 RMK A01 T02940075  RH  025%=      5-min Rain = 0
KDC1 262152Z 14009KT 29/09 A2998 RMK A01 T02930087  RH  028%=      5-min Rain = 0
KDC1 262153Z 16009KT 29/08 A2998 RMK A01 T02920079  RH  026%=      5-min Rain = 0
KDC1 262154Z 17004KT 29/07 A2998 RMK A01 T02900069  RH  025%=      5-min Rain = 0
KDC1 262155Z 18003KT 29/07 A2998 RMK A01 T02900066  RH  024%=      5-min Rain = 0
KDC1 262156Z 15003KT 29/07 A2998 RMK A01 T02920067  RH  024%=      5-min Rain = 0
KDC1 262157Z 14005KT 29/08 A2997 RMK A01 T02940078  RH  026%=      5-min Rain = 0
KDC1 262158Z 13004KT 29/07 A2997 RMK A01 T02920072  RH  025%=      5-min Rain = 0
KDC1 262159Z 14006KT 29/08 A2997 RMK A01 T02910082  RH  027%=      5-min Rain = 0
KDC1 262200Z 15007KT 29/08 A2997 RMK A01 T02910082  RH  027%=      5-min Rain = 0
KDC1 262201Z 15008KT 29/07 A2997 RMK A01 T02910072  RH  025%=      5-min Rain = 0
KDC1 262202Z 17005KT 29/07 A2997 RMK A01 T02920073  RH  025%=      5-min Rain = 0
KDC1 262203Z 14006KT 29/06 A2997 RMK A01 T02920063  RH  024%=      5-min Rain = 0
KDC1 262204Z 14005KT 29/07 A2997 RMK A01 T02910074  RH  026%=      5-min Rain = 0
KDC1 262205Z 18007KT 29/08 A2997 RMK A01 T02920079  RH  026%=      5-min Rain = 0
KDC1 262206Z 16006KT 29/07 A2997 RMK A01 T02920069  RH  025%=      5-min Rain = 0
KDC1 262207Z 15007KT 29/08 A2997 RMK A01 T02920077  RH  026%=      5-min Rain = 0
KDC1 262208Z 15007KT 29/07 A2997 RMK A01 T02910070  RH  025%=      5-min Rain = 0
KDC1 262209Z 15006KT 29/06 A2997 RMK A01 T02910063  RH  024%=      5-min Rain = 0
KDC1 262210Z 17003KT 29/06 A2997 RMK A01 T02900060  RH  023%=      5-min Rain = 0
KDC1 262211Z 21005KT 29/06 A2997 RMK A01 T02900061  RH  023%=      5-min Rain = 0
KDC1 262212Z 19004KT 29/06 A2997 RMK A01 T02920057  RH  023%=      5-min Rain = 0
KDC1 262213Z 21004KT 29/05 A2997 RMK A01 T02930049  RH  021%=      5-min Rain = 0
KDC1 262214Z 24002KT 29/05 A2997 RMK A01 T02920047  RH  021%=      5-min Rain = 0
KDC1 262215Z 21002KT 29/05 A2997 RMK A01 T02910048  RH  021%=      5-min Rain = 0
KDC1 262216Z 16006KT 29/05 A2997 RMK A01 T02920054  RH  022%=      5-min Rain = 0
KDC1 262217Z 15008KT 29/08 A2996 RMK A01 T02930076  RH  026%=      5-min Rain = 0
KDC1 262218Z 14006KT 29/06 A2996 RMK A01 T02940063  RH  023%=      5-min Rain = 0
KDC1 262219Z 15005KT 29/06 A2996 RMK A01 T02940060  RH  023%=      5-min Rain = 0
KDC1 262220Z 15007KT 29/08 A2996 RMK A01 T02940078  RH  026%=      5-min Rain = 0
KDC1 262221Z 15007KT 29/07 A2996 RMK A01 T02940072  RH  025%=      5-min Rain = 0
KDC1 262222Z 14006KT 29/06 A2996 RMK A01 T02910061  RH  023%=      5-min Rain = 0
KDC1 262223Z 16007KT 29/07 A2996 RMK A01 T02880069  RH  025%=      5-min Rain = 0
KDC1 262224Z 15007KT 29/07 A2996 RMK A01 T02870067  RH  025%=      5-min Rain = 0
KDC1 262225Z 14006KT 29/08 A2996 RMK A01 T02890083  RH  027%=      5-min Rain = 0
KDC1 262226Z 16006KT 29/08 A2996 RMK A01 T02910077  RH  026%=      5-min Rain = 0
KDC1 262227Z 17005KT 29/08 A2996 RMK A01 T02930079  RH  026%=      5-min Rain = 0
KDC1 262228Z 19005KT 29/07 A2996 RMK A01 T02940065  RH  024%=      5-min Rain = 0
KDC1 262229Z 18004KT 29/05 A2996 RMK A01 T02940053  RH  022%=      5-min Rain = 0
KDC1 262230Z 14005KT 29/08 A2996 RMK A01 T02940080  RH  026%=      5-min Rain = 0
KDC1 262231Z 14006KT 29/10 A2996 RMK A01 T02930095  RH  029%=      5-min Rain = 0
KDC1 262232Z 13006KT 29/09 A2996 RMK A01 T02930087  RH  028%=      5-min Rain = 0
KDC1 262233Z 15006KT 29/08 A2996 RMK A01 T02940084  RH  027%=      5-min Rain = 0
KDC1 262234Z 17005KT 30/06 A2996 RMK A01 T02960063  RH  023%=      5-min Rain = 0
KDC1 262235Z 14005KT 30/06 A2996 RMK A01 T02960062  RH  023%=      5-min Rain = 0
KDC1 262236Z 15002KT 30/05 A2996 RMK A01 T02950048  RH  021%=      5-min Rain = 0
KDC1 262237Z 14002KT 29/05 A2996 RMK A01 T02940048  RH  021%=      5-min Rain = 0
KDC1 262238Z 12002KT 30/06 A2996 RMK A01 T02950057  RH  022%=      5-min Rain = 0
KDC1 262239Z 13002KT 30/06 A2996 RMK A01 T02960055  RH  022%=      5-min Rain = 0
KDC1 262240Z 12008KT 30/07 A2996 RMK A01 T02960073  RH  025%=      5-min Rain = 0
KDC1 262241Z 12009KT 30/08 A2996 RMK A01 T02960079  RH  026%=      5-min Rain = 0
KDC1 262242Z 12007KT 30/07 A2996 RMK A01 T02970066  RH  023%=      5-min Rain = 0
KDC1 262243Z 11006KT 30/06 A2996 RMK A01 T02960057  RH  022%=      5-min Rain = 0
KDC1 262244Z 12007KT 29/06 A2996 RMK A01 T02940061  RH  023%=      5-min Rain = 0
KDC1 262245Z 12006KT 29/07 A2996 RMK A01 T02940067  RH  024%=      5-min Rain = 0
KDC1 262246Z 15007KT 29/08 A2996 RMK A01 T02930075  RH  026%=      5-min Rain = 0
KDC1 262247Z 14006KT 29/07 A2996 RMK A01 T02920069  RH  025%=      5-min Rain = 0
KDC1 262248Z 13006KT 29/07 A2996 RMK A01 T02910073  RH  025%=      5-min Rain = 0
KDC1 262249Z 12006KT 29/07 A2996 RMK A01 T02900068  RH  025%=      5-min Rain = 0
KDC1 262250Z 11005KT 29/06 A2996 RMK A01 T02880057  RH  023%=      5-min Rain = 0
KDC1 262251Z 11005KT 29/05 A2996 RMK A01 T02880048  RH  022%=      5-min Rain = 0
KDC1 262252Z 12003KT 29/05 A2996 RMK A01 T02870049  RH  022%=      5-min Rain = 0
KDC1 262253Z 12004KT 29/06 A2996 RMK A01 T02860055  RH  023%=      5-min Rain = 0
KDC1 262254Z 12002KT 29/05 A2995 RMK A01 T02860054  RH  023%=      5-min Rain = 0
KDC1 262255Z 13001KT 29/05 A2995 RMK A01 T02870046  RH  021%=      5-min Rain = 0
KDC1 262256Z 13005KT 29/06 A2995 RMK A01 T02890055  RH  023%=      5-min Rain = 0
KDC1 262257Z 18006KT 29/07 A2995 RMK A01 T02910072  RH  025%=      5-min Rain = 0
KDC1 262258Z 18005KT 29/06 A2995 RMK A01 T02900056  RH  023%=      5-min Rain = 0
KDC1 262259Z 15003KT 29/05 A2995 RMK A01 T02890049  RH  022%=      5-min Rain = 0
KDC1 262300Z 14004KT 29/05 A2995 RMK A01 T02900050  RH  022%=      5-min Rain = 0
KDC1 262301Z 12005KT 29/06 A2995 RMK A01 T02920057  RH  023%=      5-min Rain = 0
KDC1 262302Z 12004KT 29/06 A2995 RMK A01 T02940055  RH  022%=      5-min Rain = 0
KDC1 262303Z 13004KT 30/05 A2995 RMK A01 T02950052  RH  022%=      5-min Rain = 0
KDC1 262304Z 13004KT 30/06 A2995 RMK A01 T02950063  RH  023%=      5-min Rain = 0
KDC1 262305Z 14004KT 30/06 A2995 RMK A01 T02960058  RH  022%=      5-min Rain = 0
KDC1 262306Z 14004KT 30/06 A2995 RMK A01 T02960059  RH  022%=      5-min Rain = 0
KDC1 262307Z 15004KT 30/07 A2995 RMK A01 T02960068  RH  024%=      5-min Rain = 0
KDC1 262308Z 15003KT 30/07 A2995 RMK A01 T02980068  RH  024%=      5-min Rain = 0
KDC1 262309Z 14003KT 30/05 A2995 RMK A01 T02990054  RH  021%=      5-min Rain = 0
KDC1 262310Z 15003KT 30/06 A2995 RMK A01 T02990063  RH  023%=      5-min Rain = 0
KDC1 262311Z 13006KT 30/08 A2995 RMK A01 T02990077  RH  025%=      5-min Rain = 0
KDC1 262312Z 13005KT 30/08 A2995 RMK A01 T02980084  RH  026%=      5-min Rain = 0
KDC1 262313Z 13004KT 30/07 A2995 RMK A01 T02970071  RH  024%=      5-min Rain = 0
KDC1 262314Z 12005KT 30/06 A2995 RMK A01 T02980064  RH  023%=      5-min Rain = 0
KDC1 262315Z 12004KT 30/06 A2995 RMK A01 T02970063  RH  023%=      5-min Rain = 0
KDC1 262316Z 12004KT 30/07 A2995 RMK A01 T02970066  RH  023%=      5-min Rain = 0
KDC1 262317Z 11004KT 30/06 A2995 RMK A01 T02970064  RH  023%=      5-min Rain = 0
KDC1 262318Z 11003KT 30/06 A2994 RMK A01 T02960055  RH  022%=      5-min Rain = 0
KDC1 262319Z 12002KT 30/05 A2994 RMK A01 T02950054  RH  022%=      5-min Rain = 0
KDC1 262320Z 11001KT 30/06 A2994 RMK A01 T02960055  RH  022%=      5-min Rain = 0
KDC1 262321Z 14001KT 30/06 A2994 RMK A01 T02970062  RH  023%=      5-min Rain = 0
KDC1 262322Z 15000KT 30/06 A2994 RMK A01 T02980062  RH  023%=      5-min Rain = 0
KDC1 262323Z 14002KT 30/07 A2994 RMK A01 T03020069  RH  023%=      5-min Rain = 0
KDC1 262324Z 14003KT 30/06 A2994 RMK A01 T03030064  RH  022%=      5-min Rain = 0
KDC1 262325Z 12003KT 30/07 A2994 RMK A01 T03030066  RH  022%=      5-min Rain = 0
KDC1 262326Z 14005KT 30/06 A2994 RMK A01 T03020061  RH  022%=      5-min Rain = 0
KDC1 262327Z 14006KT 30/08 A2994 RMK A01 T03000077  RH  025%=      5-min Rain = 0
KDC1 262328Z 14005KT 30/07 A2994 RMK A01 T02980073  RH  024%=      5-min Rain = 0
KDC1 262329Z 15004KT 30/06 A2994 RMK A01 T02970061  RH  022%=      5-min Rain = 0
KDC1 262330Z 16002KT 30/05 A2994 RMK A01 T02970049  RH  021%=      5-min Rain = 0
KDC1 262331Z 13002KT 30/05 A2994 RMK A01 T02960046  RH  020%=      5-min Rain = 0
KDC1 262332Z 11002KT 30/06 A2994 RMK A01 T02980058  RH  022%=      5-min Rain = 0
KDC1 262333Z 10002KT 30/05 A2994 RMK A01 T02980048  RH  020%=      5-min Rain = 0
KDC1 262334Z 08002KT 30/05 A2994 RMK A01 T02980047  RH  020%=      5-min Rain = 0
KDC1 262335Z 07002KT 30/05 A2994 RMK A01 T02990045  RH  020%=      5-min Rain = 0
KDC1 262336Z 11002KT 30/05 A2994 RMK A01 T03000049  RH  020%=      5-min Rain = 0
KDC1 262337Z 13003KT 30/06 A2994 RMK A01 T03010055  RH  021%=      5-min Rain = 0
KDC1 262338Z 14004KT 30/07 A2994 RMK A01 T03010071  RH  024%=      5-min Rain = 0
KDC1 262339Z 15003KT 30/06 A2994 RMK A01 T03000061  RH  022%=      5-min Rain = 0
KDC1 262340Z 14003KT 30/06 A2994 RMK A01 T02990061  RH  022%=      5-min Rain = 0
KDC1 262341Z 16004KT 30/08 A2994 RMK A01 T02990075  RH  025%=      5-min Rain = 0
KDC1 262342Z 15003KT 30/09 A2994 RMK A01 T03000086  RH  026%=      5-min Rain = 0
KDC1 262343Z 15003KT 30/07 A2994 RMK A01 T02990070  RH  024%=      5-min Rain = 0
KDC1 262344Z 13005KT 30/07 A2994 RMK A01 T03000074  RH  024%=      5-min Rain = 0
KDC1 262345Z 12004KT 30/08 A2994 RMK A01 T02990079  RH  025%=      5-min Rain = 0
KDC1 262346Z 12005KT 30/08 A2994 RMK A01 T02970076  RH  025%=      5-min Rain = 0
KDC1 262347Z 10005KT 30/06 A2994 RMK A01 T02960059  RH  022%=      5-min Rain = 0
KDC1 262348Z 08003KT 30/05 A2994 RMK A01 T02960045  RH  020%=      5-min Rain = 0
KDC1 262349Z 12003KT 30/05 A2994 RMK A01 T02960045  RH  020%=      5-min Rain = 0
KDC1 262350Z 11003KT 30/05 A2994 RMK A01 T02960053  RH  021%=      5-min Rain = 0
KDC1 262351Z 08004KT 30/05 A2994 RMK A01 T02970048  RH  021%=      5-min Rain = 0
KDC1 262352Z 09004KT 30/05 A2994 RMK A01 T03000047  RH  020%=      5-min Rain = 0
KDC1 262353Z 08003KT 30/05 A2994 RMK A01 T03020046  RH  020%=      5-min Rain = 0
KDC1 262354Z 05002KT 30/05 A2994 RMK A01 T03020045  RH  020%=      5-min Rain = 0
KDC1 262355Z 05000KT 30/05 A2994 RMK A01 T03020046  RH  020%=      5-min Rain = 0
KDC1 262356Z 06002KT 30/05 A2994 RMK A01 T03030047  RH  020%=      5-min Rain = 0
KDC1 262357Z 07001KT 31/05 A2994 RMK A01 T03050048  RH  020%=      5-min Rain = 0
KDC1 262358Z 03000KT 31/05 A2994 RMK A01 T03060049  RH  020%=      5-min Rain = 0
KDC1 262359Z 03006KT 31/05 A2994 RMK A01 T03070049  RH  020%=      5-min Rain = 0
KDC1 270000Z 01003KT 31/05 A2994 RMK A01 T03050046  RH  019%=      5-min Rain = 0
KDC1 270001Z 36003KT 30/05 A2994 RMK A01 T03020045  RH  020%=      5-min Rain = 0
KDC1 270002Z 32002KT 30/05 A2994 RMK A01 T02990045  RH  020%=      5-min Rain = 0
KDC1 270003Z 28002KT 30/05 A2994 RMK A01 T02990046  RH  020%=      5-min Rain = 0
KDC1 270004Z 31002KT 30/05 A2994 RMK A01 T02990047  RH  020%=      5-min Rain = 0
KDC1 270005Z 35002KT 30/05 A2994 RMK A01 T03000046  RH  020%=      5-min Rain = 0
KDC1 270006Z 35003KT 30/05 A2994 RMK A01 T02990046  RH  020%=      5-min Rain = 0
KDC1 270007Z 26001KT 30/05 A2994 RMK A01 T02990046  RH  020%=      5-min Rain = 0
KDC1 270008Z 23000KT 30/04 A2994 RMK A01 T02990043  RH  020%=      5-min Rain = 0
KDC1 270009Z 25000KT 30/04 A2994 RMK A01 T03000040  RH  019%=      5-min Rain = 0
KDC1 270010Z 00000KT 30/04 A2994 RMK A01 T03010039  RH  019%=      5-min Rain = 0
KDC1 270011Z 29000KT 30/04 A2994 RMK A01 T03020040  RH  019%=      5-min Rain = 0
KDC1 270012Z 31002KT 30/04 A2994 RMK A01 T03020036  RH  018%=      5-min Rain = 0
KDC1 270013Z 34001KT 30/03 A2994 RMK A01 T03030033  RH  018%=      5-min Rain = 0
KDC1 270014Z 01001KT 30/04 A2994 RMK A01 T03040035  RH  018%=      5-min Rain = 0
KDC1 270015Z 04002KT 31/04 A2994 RMK A01 T03050039  RH  019%=      5-min Rain = 0
KDC1 270016Z 07002KT 31/05 A2994 RMK A01 T03060046  RH  019%=      5-min Rain = 0
KDC1 270017Z 05003KT 31/05 A2993 RMK A01 T03050045  RH  019%=      5-min Rain = 0
KDC1 270018Z 03003KT 30/04 A2993 RMK A01 T03020035  RH  018%=      5-min Rain = 0
KDC1 270019Z 03002KT 30/03 A2993 RMK A01 T03020031  RH  018%=      5-min Rain = 0
KDC1 270020Z 04002KT 30/03 A2993 RMK A01 T03010033  RH  018%=      5-min Rain = 0
KDC1 270021Z 01002KT 30/03 A2993 RMK A01 T03010033  RH  018%=      5-min Rain = 0
KDC1 270022Z 34001KT 30/03 A2993 RMK A01 T03030033  RH  018%=      5-min Rain = 0
KDC1 270023Z 00002KT 30/03 A2993 RMK A01 T03040033  RH  018%=      5-min Rain = 0
KDC1 270024Z 34005KT 31/04 A2993 RMK A01 T03050036  RH  018%=      5-min Rain = 0
KDC1 270025Z 34003KT 31/04 A2993 RMK A01 T03050036  RH  018%=      5-min Rain = 0
KDC1 270026Z 02004KT 30/04 A2993 RMK A01 T03040044  RH  019%=      5-min Rain = 0
KDC1 270027Z 04005KT 30/05 A2993 RMK A01 T03040054  RH  021%=      5-min Rain = 0
KDC1 270028Z 04004KT 30/05 A2993 RMK A01 T03020052  RH  021%=      5-min Rain = 0
KDC1 270029Z 05004KT 30/05 A2993 RMK A01 T03020053  RH  021%=      5-min Rain = 0
KDC1 270030Z 06004KT 30/05 A2993 RMK A01 T03020051  RH  021%=      5-min Rain = 0
KDC1 270031Z 07004KT 30/05 A2993 RMK A01 T03010048  RH  020%=      5-min Rain = 0
KDC1 270032Z 08003KT 30/05 A2993 RMK A01 T02990046  RH  020%=      5-min Rain = 0
KDC1 270033Z 09003KT 30/05 A2993 RMK A01 T02990045  RH  020%=      5-min Rain = 0
KDC1 270034Z 12003KT 30/05 A2993 RMK A01 T02990046  RH  020%=      5-min Rain = 0
KDC1 270035Z 16002KT 30/06 A2993 RMK A01 T02990057  RH  022%=      5-min Rain = 0
KDC1 270036Z 20001KT 30/05 A2993 RMK A01 T02990054  RH  021%=      5-min Rain = 0
KDC1 270037Z 21002KT 30/05 A2994 RMK A01 T03000050  RH  021%=      5-min Rain = 0
KDC1 270038Z 22002KT 30/05 A2994 RMK A01 T03010047  RH  020%=      5-min Rain = 0
KDC1 270039Z 21002KT 30/05 A2994 RMK A01 T03010046  RH  020%=      5-min Rain = 0
KDC1 270040Z 20001KT 30/04 A2994 RMK A01 T03020044  RH  020%=      5-min Rain = 0
KDC1 270041Z 00000KT 30/05 A2994 RMK A01 T03020046  RH  020%=      5-min Rain = 0
KDC1 270042Z 30000KT 30/05 A2994 RMK A01 T03030045  RH  020%=      5-min Rain = 0
KDC1 270043Z 27003KT 31/04 A2994 RMK A01 T03050044  RH  019%=      5-min Rain = 0
KDC1 270044Z 26004KT 31/04 A2994 RMK A01 T03060035  RH  018%=      5-min Rain = 0
KDC1 270045Z 29006KT 31/03 A2994 RMK A01 T03050033  RH  018%=      5-min Rain = 0
KDC1 270046Z 30006KT 30/03 A2994 RMK A01 T03030034  RH  018%=      5-min Rain = 0
KDC1 270047Z 28005KT 30/04 A2994 RMK A01 T03010041  RH  019%=      5-min Rain = 0
KDC1 270048Z 29009KT 30/04 A2994 RMK A01 T02990041  RH  019%=      5-min Rain = 0
KDC1 270049Z 30009KT 30/04 A2994 RMK A01 T02970037  RH  019%=      5-min Rain = 0
KDC1 270050Z 30007KT 30/03 A2994 RMK A01 T02950031  RH  019%=      5-min Rain = 0
KDC1 270051Z 30007KT 29/03 A2994 RMK A01 T02940030  RH  018%=      5-min Rain = 0
KDC1 270052Z 30008KT 29/03 A2994 RMK A01 T02930026  RH  018%=      5-min Rain = 0
KDC1 270053Z 29008KT 29/03 A2994 RMK A01 T02930027  RH  018%=      5-min Rain = 0
KDC1 270054Z 30009KT 29/03 A2994 RMK A01 T02930027  RH  018%=      5-min Rain = 0
KDC1 270055Z 30008KT 29/03 A2994 RMK A01 T02930025  RH  018%=      5-min Rain = 0
KDC1 270056Z 31009KT 29/02 A2994 RMK A01 T02920018  RH  017%=      5-min Rain = 0
KDC1 270057Z 30008KT 29/01 A2994 RMK A01 T02930012  RH  016%=      5-min Rain = 0
KDC1 270058Z 30008KT 29/01 A2994 RMK A01 T02940010  RH  016%=      5-min Rain = 0
KDC1 270059Z 30007KT 30/01 A2994 RMK A01 T02950012  RH  016%=      5-min Rain = 0
KDC1 270100Z 30007KT 29/02 A2994 RMK A01 T02940016  RH  017%=      5-min Rain = 0
KDC1 270101Z 29007KT 29/02 A2994 RMK A01 T02930018  RH  017%=      5-min Rain = 0
KDC1 270102Z 28008KT 29/02 A2994 RMK A01 T02920019  RH  017%=      5-min Rain = 0
KDC1 270103Z 29010KT 29/03 A2994 RMK A01 T02910027  RH  018%=      5-min Rain = 0
KDC1 270104Z 30009KT 29/03 A2994 RMK A01 T02880026  RH  019%=      5-min Rain = 0
KDC1 270105Z 30008KT 29/02 A2994 RMK A01 T02870019  RH  018%=      5-min Rain = 0
KDC1 270106Z 30010KT 29/02 A2994 RMK A01 T02880015  RH  017%=      5-min Rain = 0
KDC1 270107Z 30011KT 29/02 A2994 RMK A01 T02890015  RH  017%=      5-min Rain = 0
KDC1 270108Z 30011KT 29/02 A2994 RMK A01 T02880016  RH  017%=      5-min Rain = 0
KDC1 270109Z 30011KT 29/02 A2994 RMK A01 T02880015  RH  017%=      5-min Rain = 0
KDC1 270110Z 30011KT 29/01 A2994 RMK A01 T02880012  RH  017%=      5-min Rain = 0
KDC1 270111Z 30010KT 29/01 A2994 RMK A01 T02880009  RH  016%=      5-min Rain = 0
KDC1 270112Z 30009KT 29/01 A2994 RMK A01 T02890012  RH  017%=      5-min Rain = 0
KDC1 270113Z 30009KT 29/01 A2994 RMK A01 T02890014  RH  017%=      5-min Rain = 0
KDC1 270114Z 30010KT 29/02 A2994 RMK A01 T02880015  RH  017%=      5-min Rain = 0
KDC1 270115Z 30010KT 29/01 A2994 RMK A01 T02870010  RH  017%=      5-min Rain = 0
KDC1 270116Z 30010KT 29/01 A2994 RMK A01 T02880008  RH  016%=      5-min Rain = 0
KDC1 270117Z 30009KT 29/01 A2994 RMK A01 T02880011  RH  017%=      5-min Rain = 0
KDC1 270118Z 30009KT 29/02 A2994 RMK A01 T02870015  RH  017%=      5-min Rain = 0
KDC1 270119Z 30011KT 29/02 A2994 RMK A01 T02850016  RH  018%=      5-min Rain = 0
KDC1 270120Z 31011KT 28/01 A2994 RMK A01 T02840011  RH  017%=      5-min Rain = 0
KDC1 270121Z 30010KT 28/01 A2994 RMK A01 T02840006  RH  017%=      5-min Rain = 0
KDC1 270122Z 30009KT 29/01 A2994 RMK A01 T02850006  RH  016%=      5-min Rain = 0
KDC1 270123Z 30008KT 28/01 A2994 RMK A01 T02840008  RH  017%=      5-min Rain = 0
KDC1 270124Z 30009KT 28/01 A2994 RMK A01 T02830009  RH  017%=      5-min Rain = 0
KDC1 270125Z 30009KT 28/01 A2994 RMK A01 T02820008  RH  017%=      5-min Rain = 0
KDC1 270126Z 30008KT 28/01 A2994 RMK A01 T02810008  RH  017%=      5-min Rain = 0
KDC1 270127Z 30007KT 28/01 A2994 RMK A01 T02810011  RH  017%=      5-min Rain = 0
KDC1 270128Z 31007KT 28/01 A2994 RMK A01 T02790013  RH  018%=      5-min Rain = 0
KDC1 270129Z 30007KT 28/01 A2994 RMK A01 T02770013  RH  018%=      5-min Rain = 0
KDC1 270130Z 30007KT 28/01 A2994 RMK A01 T02750012  RH  018%=      5-min Rain = 0
KDC1 270131Z 31008KT 28/01 A2994 RMK A01 T02750010  RH  018%=      5-min Rain = 0
KDC1 270132Z 30008KT 27/01 A2994 RMK A01 T02730009  RH  018%=      5-min Rain = 0
KDC1 270133Z 30008KT 27/01 A2994 RMK A01 T02730007  RH  018%=      5-min Rain = 0
KDC1 270134Z 30008KT 27/01 A2994 RMK A01 T02730008  RH  018%=      5-min Rain = 0
KDC1 270135Z 30008KT 27/01 A2994 RMK A01 T02720009  RH  018%=      5-min Rain = 0
KDC1 270136Z 30008KT 27/01 A2994 RMK A01 T02700010  RH  018%=      5-min Rain = 0
KDC1 270137Z 30008KT 27/01 A2994 RMK A01 T02680012  RH  019%=      5-min Rain = 0
KDC1 270138Z 30008KT 27/01 A2994 RMK A01 T02660013  RH  019%=      5-min Rain = 0
KDC1 270139Z 30008KT 27/01 A2994 RMK A01 T02650013  RH  019%=      5-min Rain = 0
KDC1 270140Z 30008KT 26/02 A2994 RMK A01 T02640016  RH  020%=      5-min Rain = 0
KDC1 270141Z 30008KT 26/02 A2994 RMK A01 T02620018  RH  020%=      5-min Rain = 0
KDC1 270142Z 30008KT 26/02 A2994 RMK A01 T02600019  RH  021%=      5-min Rain = 0
KDC1 270143Z 30007KT 26/02 A2994 RMK A01 T02580023  RH  022%=      5-min Rain = 0
KDC1 270144Z 29007KT 26/03 A2994 RMK A01 T02560028  RH  023%=      5-min Rain = 0
KDC1 270145Z 29007KT 25/03 A2994 RMK A01 T02540031  RH  024%=      5-min Rain = 0
KDC1 270146Z 29007KT 25/03 A2994 RMK A01 T02510034  RH  024%=      5-min Rain = 0
KDC1 270147Z 30008KT 25/04 A2994 RMK A01 T02490036  RH  025%=      5-min Rain = 0
KDC1 270148Z 29008KT 25/04 A2994 RMK A01 T02470037  RH  026%=      5-min Rain = 0
KDC1 270149Z 29008KT 25/04 A2994 RMK A01 T02450038  RH  026%=      5-min Rain = 0
KDC1 270150Z 30007KT 24/04 A2994 RMK A01 T02440039  RH  027%=      5-min Rain = 0
KDC1 270151Z 29007KT 24/04 A2995 RMK A01 T02420040  RH  027%=      5-min Rain = 0
KDC1 270152Z 29007KT 24/04 A2995 RMK A01 T02410042  RH  028%=      5-min Rain = 0
KDC1 270153Z 29007KT 24/05 A2995 RMK A01 T02380046  RH  029%=      5-min Rain = 0
KDC1 270154Z 29007KT 24/05 A2995 RMK A01 T02350046  RH  029%=      5-min Rain = 0
KDC1 270155Z 29007KT 23/05 A2995 RMK A01 T02320047  RH  030%=      5-min Rain = 0
KDC1 270156Z 29007KT 23/05 A2995 RMK A01 T02300048  RH  031%=      5-min Rain = 0
KDC1 270157Z 29007KT 23/05 A2995 RMK A01 T02290050  RH  031%=      5-min Rain = 0
KDC1 270158Z 28006KT 23/05 A2995 RMK A01 T02280051  RH  032%=      5-min Rain = 0
KDC1 270159Z 28007KT 23/05 A2995 RMK A01 T02270050  RH  032%=      5-min Rain = 0
KDC1 270200Z 28007KT 23/05 A2995 RMK A01 T02260050  RH  032%=      5-min Rain = 0
KDC1 270201Z 29007KT 23/05 A2995 RMK A01 T02260051  RH  032%=      5-min Rain = 0
KDC1 270202Z 29007KT 23/05 A2995 RMK A01 T02260050  RH  032%=      5-min Rain = 0
KDC1 270203Z 28007KT 23/05 A2995 RMK A01 T02260049  RH  032%=      5-min Rain = 0
KDC1 270204Z 28006KT 23/05 A2995 RMK A01 T02260050  RH  032%=      5-min Rain = 0
KDC1 270205Z 28006KT 23/05 A2995 RMK A01 T02260046  RH  031%=      5-min Rain = 0
KDC1 270206Z 28006KT 23/05 A2995 RMK A01 T02270048  RH  031%=      5-min Rain = 0
KDC1 270207Z 28006KT 23/05 A2995 RMK A01 T02270049  RH  031%=      5-min Rain = 0
KDC1 270208Z 27006KT 23/05 A2995 RMK A01 T02270052  RH  032%=      5-min Rain = 0
KDC1 270209Z 27005KT 23/05 A2995 RMK A01 T02260052  RH  032%=      5-min Rain = 0
KDC1 270210Z 25005KT 23/04 A2995 RMK A01 T02260037  RH  029%=      5-min Rain = 0
KDC1 270211Z 25005KT 23/03 A2995 RMK A01 T02300030  RH  027%=      5-min Rain = 0
KDC1 270212Z 26005KT 24/03 A2995 RMK A01 T02350031  RH  026%=      5-min Rain = 0
KDC1 270213Z 26005KT 24/03 A2995 RMK A01 T02380034  RH  027%=      5-min Rain = 0
KDC1 270214Z 26004KT 24/04 A2995 RMK A01 T02390038  RH  027%=      5-min Rain = 0
KDC1 270215Z 26004KT 24/04 A2995 RMK A01 T02380039  RH  027%=      5-min Rain = 0
KDC1 270216Z 26004KT 24/04 A2995 RMK A01 T02370044  RH  029%=      5-min Rain = 0
KDC1 270217Z 26005KT 24/05 A2995 RMK A01 T02350049  RH  030%=      5-min Rain = 0
KDC1 270218Z 25004KT 23/05 A2995 RMK A01 T02330049  RH  030%=      5-min Rain = 0
KDC1 270219Z 25004KT 23/05 A2995 RMK A01 T02310054  RH  032%=      5-min Rain = 0
KDC1 270220Z 26004KT 23/06 A2995 RMK A01 T02280056  RH  033%=      5-min Rain = 0
KDC1 270221Z 25004KT 23/06 A2995 RMK A01 T02250055  RH  033%=      5-min Rain = 0
KDC1 270222Z 25004KT 22/06 A2995 RMK A01 T02230055  RH  034%=      5-min Rain = 0
KDC1 270223Z 25004KT 22/06 A2995 RMK A01 T02200059  RH  035%=      5-min Rain = 0
KDC1 270224Z 25004KT 22/06 A2995 RMK A01 T02170059  RH  036%=      5-min Rain = 0
KDC1 270225Z 24004KT 22/06 A2995 RMK A01 T02160055  RH  035%=      5-min Rain = 0
KDC1 270226Z 25005KT 22/06 A2995 RMK A01 T02160057  RH  035%=      5-min Rain = 0
KDC1 270227Z 25005KT 22/05 A2995 RMK A01 T02160049  RH  034%=      5-min Rain = 0
KDC1 270228Z 25005KT 22/05 A2995 RMK A01 T02180047  RH  033%=      5-min Rain = 0
KDC1 270229Z 25005KT 22/05 A2995 RMK A01 T02200045  RH  032%=      5-min Rain = 0
KDC1 270230Z 25005KT 22/04 A2995 RMK A01 T02220044  RH  031%=      5-min Rain = 0
KDC1 270231Z 25005KT 23/04 A2995 RMK A01 T02250040  RH  030%=      5-min Rain = 0
KDC1 270232Z 25005KT 23/04 A2995 RMK A01 T02270041  RH  030%=      5-min Rain = 0
KDC1 270233Z 24004KT 23/04 A2995 RMK A01 T02290038  RH  029%=      5-min Rain = 0
KDC1 270234Z 24004KT 23/04 A2995 RMK A01 T02300035  RH  028%=      5-min Rain = 0
KDC1 270235Z 24004KT 23/04 A2995 RMK A01 T02320040  RH  029%=      5-min Rain = 0
KDC1 270236Z 24004KT 23/04 A2995 RMK A01 T02320038  RH  028%=      5-min Rain = 0
KDC1 270237Z 24004KT 23/03 A2995 RMK A01 T02310032  RH  027%=      5-min Rain = 0
KDC1 270238Z 24004KT 23/03 A2995 RMK A01 T02320033  RH  027%=      5-min Rain = 0
KDC1 270239Z 24004KT 23/04 A2995 RMK A01 T02320035  RH  028%=      5-min Rain = 0
KDC1 270240Z 24003KT 23/04 A2995 RMK A01 T02310035  RH  028%=      5-min Rain = 0
KDC1 270241Z 23004KT 23/03 A2995 RMK A01 T02310034  RH  028%=      5-min Rain = 0
KDC1 270242Z 24004KT 23/03 A2995 RMK A01 T02310033  RH  027%=      5-min Rain = 0
KDC1 270243Z 24004KT 23/03 A2995 RMK A01 T02310032  RH  027%=      5-min Rain = 0
KDC1 270244Z 24004KT 23/03 A2995 RMK A01 T02310030  RH  027%=      5-min Rain = 0
KDC1 270245Z 25005KT 23/03 A2995 RMK A01 T02310026  RH  026%=      5-min Rain = 0
KDC1 270246Z 24004KT 23/02 A2995 RMK A01 T02330023  RH  025%=      5-min Rain = 0
KDC1 270247Z 24004KT 23/03 A2996 RMK A01 T02340025  RH  025%=      5-min Rain = 0
KDC1 270248Z 24004KT 23/02 A2996 RMK A01 T02340024  RH  025%=      5-min Rain = 0
KDC1 270249Z 24005KT 23/02 A2996 RMK A01 T02340023  RH  025%=      5-min Rain = 0
KDC1 270250Z 25006KT 23/02 A2996 RMK A01 T02340022  RH  025%=      5-min Rain = 0
KDC1 270251Z 25006KT 24/02 A2996 RMK A01 T02350020  RH  024%=      5-min Rain = 0
KDC1 270252Z 25006KT 24/02 A2996 RMK A01 T02360021  RH  024%=      5-min Rain = 0
KDC1 270253Z 26005KT 24/02 A2996 RMK A01 T02360023  RH  025%=      5-min Rain = 0
KDC1 270254Z 25005KT 24/03 A2996 RMK A01 T02360026  RH  025%=      5-min Rain = 0
KDC1 270255Z 25005KT 24/03 A2996 RMK A01 T02350026  RH  025%=      5-min Rain = 0
KDC1 270256Z 26005KT 23/03 A2996 RMK A01 T02340025  RH  025%=      5-min Rain = 0
KDC1 270257Z 26005KT 23/03 A2996 RMK A01 T02320026  RH  026%=      5-min Rain = 0
KDC1 270258Z 25005KT 23/03 A2996 RMK A01 T02310028  RH  026%=      5-min Rain = 0
KDC1 270259Z 25005KT 23/03 A2996 RMK A01 T02290027  RH  027%=      5-min Rain = 0
KDC1 270300Z 25005KT 23/03 A2996 RMK A01 T02280027  RH  027%=      5-min Rain = 0
KDC1 270301Z 25005KT 23/03 A2996 RMK A01 T02280027  RH  027%=      5-min Rain = 0
KDC1 270302Z 25005KT 23/03 A2996 RMK A01 T02270029  RH  027%=      5-min Rain = 0
KDC1 270303Z 24005KT 23/03 A2996 RMK A01 T02270029  RH  027%=      5-min Rain = 0
KDC1 270304Z 23004KT 23/03 A2996 RMK A01 T02270034  RH  028%=      5-min Rain = 0
KDC1 270305Z 25005KT 23/04 A2996 RMK A01 T02250042  RH  030%=      5-min Rain = 0
KDC1 270306Z 24005KT 22/03 A2996 RMK A01 T02240034  RH  029%=      5-min Rain = 0
KDC1 270307Z 24005KT 22/04 A2996 RMK A01 T02220038  RH  030%=      5-min Rain = 0
KDC1 270308Z 24004KT 22/04 A2996 RMK A01 T02190039  RH  031%=      5-min Rain = 0
KDC1 270309Z 25005KT 22/04 A2996 RMK A01 T02170038  RH  031%=      5-min Rain = 0
KDC1 270310Z 24006KT 22/04 A2996 RMK A01 T02160037  RH  031%=      5-min Rain = 0
KDC1 270311Z 24006KT 22/03 A2996 RMK A01 T02150034  RH  030%=      5-min Rain = 0
KDC1 270312Z 24006KT 22/03 A2996 RMK A01 T02150032  RH  030%=      5-min Rain = 0
KDC1 270313Z 24005KT 22/03 A2996 RMK A01 T02170028  RH  029%=      5-min Rain = 0
KDC1 270314Z 24006KT 22/03 A2996 RMK A01 T02190027  RH  028%=      5-min Rain = 0
KDC1 270315Z 24006KT 22/03 A2996 RMK A01 T02220026  RH  028%=      5-min Rain = 0
KDC1 270316Z 24006KT 22/03 A2996 RMK A01 T02240025  RH  027%=      5-min Rain = 0
KDC1 270317Z 23005KT 23/03 A2996 RMK A01 T02250029  RH  028%=      5-min Rain = 0
KDC1 270318Z 24005KT 23/03 A2996 RMK A01 T02260031  RH  028%=      5-min Rain = 0
KDC1 270319Z 24005KT 23/04 A2996 RMK A01 T02250035  RH  029%=      5-min Rain = 0
KDC1 270320Z 24006KT 22/04 A2996 RMK A01 T02240037  RH  029%=      5-min Rain = 0
KDC1 270321Z 24006KT 22/04 A2996 RMK A01 T02220038  RH  030%=      5-min Rain = 0
KDC1 270322Z 24006KT 22/03 A2996 RMK A01 T02200034  RH  029%=      5-min Rain = 0
KDC1 270323Z 23005KT 22/03 A2996 RMK A01 T02200033  RH  029%=      5-min Rain = 0
KDC1 270324Z 23005KT 22/03 A2996 RMK A01 T02210028  RH  028%=      5-min Rain = 0
KDC1 270325Z 23004KT 22/03 A2996 RMK A01 T02220027  RH  028%=      5-min Rain = 0
KDC1 270326Z 23005KT 22/03 A2996 RMK A01 T02230026  RH  027%=      5-min Rain = 0
KDC1 270327Z 23005KT 22/03 A2996 RMK A01 T02240027  RH  027%=      5-min Rain = 0
KDC1 270328Z 24005KT 23/03 A2996 RMK A01 T02250029  RH  028%=      5-min Rain = 0
KDC1 270329Z 22005KT 23/03 A2996 RMK A01 T02250030  RH  028%=      5-min Rain = 0
KDC1 270330Z 22005KT 22/03 A2996 RMK A01 T02240029  RH  028%=      5-min Rain = 0
KDC1 270331Z 23005KT 22/03 A2996 RMK A01 T02230032  RH  028%=      5-min Rain = 0
KDC1 270332Z 22004KT 22/03 A2996 RMK A01 T02220029  RH  028%=      5-min Rain = 0
KDC1 270333Z 23004KT 22/03 A2996 RMK A01 T02210031  RH  029%=      5-min Rain = 0
KDC1 270334Z 23004KT 22/03 A2996 RMK A01 T02210028  RH  028%=      5-min Rain = 0
KDC1 270335Z 23004KT 22/02 A2996 RMK A01 T02210023  RH  027%=      5-min Rain = 0
KDC1 270336Z 24003KT 22/02 A2996 RMK A01 T02220024  RH  027%=      5-min Rain = 0
KDC1 270337Z 23003KT 22/02 A2996 RMK A01 T02220023  RH  027%=      5-min Rain = 0
KDC1 270338Z 28002KT 22/02 A2997 RMK A01 T02220024  RH  027%=      5-min Rain = 0
KDC1 270339Z 31005KT 22/04 A2997 RMK A01 T02170042  RH  032%=      5-min Rain = 0
KDC1 270340Z 26003KT 21/04 A2997 RMK A01 T02080038  RH  033%=      5-min Rain = 0
KDC1 270341Z 26003KT 20/04 A2997 RMK A01 T02040038  RH  033%=      5-min Rain = 0
KDC1 270342Z 29003KT 20/04 A2997 RMK A01 T02030038  RH  034%=      5-min Rain = 0
KDC1 270343Z 29004KT 20/04 A2997 RMK A01 T02010039  RH  034%=      5-min Rain = 0
KDC1 270344Z 30004KT 20/04 A2997 RMK A01 T01980037  RH  034%=      5-min Rain = 0
KDC1 270345Z 30004KT 20/04 A2997 RMK A01 T01960038  RH  035%=      5-min Rain = 0
KDC1 270346Z 30003KT 20/04 A2997 RMK A01 T01950039  RH  036%=      5-min Rain = 0
KDC1 270347Z 29003KT 19/04 A2997 RMK A01 T01940038  RH  036%=      5-min Rain = 0
KDC1 270348Z 29003KT 19/04 A2997 RMK A01 T01940036  RH  035%=      5-min Rain = 0
KDC1 270349Z 27002KT 20/03 A2997 RMK A01 T01950033  RH  034%=      5-min Rain = 0
KDC1 270350Z 27002KT 20/03 A2997 RMK A01 T01960032  RH  034%=      5-min Rain = 0
KDC1 270351Z 27003KT 20/03 A2997 RMK A01 T01970031  RH  033%=      5-min Rain = 0
KDC1 270352Z 27003KT 20/03 A2997 RMK A01 T01980032  RH  033%=      5-min Rain = 0
KDC1 270353Z 27003KT 20/03 A2997 RMK A01 T01990031  RH  033%=      5-min Rain = 0
KDC1 270354Z 28003KT 20/03 A2997 RMK A01 T01990031  RH  033%=      5-min Rain = 0
KDC1 270355Z 28004KT 20/03 A2997 RMK A01 T02010030  RH  032%=      5-min Rain = 0
KDC1 270356Z 27004KT 20/03 A2997 RMK A01 T02020029  RH  032%=      5-min Rain = 0
KDC1 270357Z 27004KT 20/03 A2997 RMK A01 T02040027  RH  031%=      5-min Rain = 0
KDC1 270358Z 26003KT 21/03 A2997 RMK A01 T02050026  RH  031%=      5-min Rain = 0
KDC1 270359Z 24003KT 21/03 A2997 RMK A01 T02060028  RH  031%=      5-min Rain = 0
KDC1 270400Z 25003KT 21/03 A2997 RMK A01 T02070027  RH  030%=      5-min Rain = 0
KDC1 270401Z 26004KT 21/03 A2997 RMK A01 T02070028  RH  031%=      5-min Rain = 0
KDC1 270402Z 26004KT 21/03 A2997 RMK A01 T02080029  RH  031%=      5-min Rain = 0
KDC1 270403Z 26004KT 21/03 A2997 RMK A01 T02070030  RH  031%=      5-min Rain = 0
KDC1 270404Z 26004KT 21/03 A2997 RMK A01 T02070028  RH  031%=      5-min Rain = 0
KDC1 270405Z 26004KT 21/03 A2997 RMK A01 T02070028  RH  031%=      5-min Rain = 0
KDC1 270406Z 26005KT 21/03 A2997 RMK A01 T02070027  RH  030%=      5-min Rain = 0
KDC1 270407Z 25004KT 21/03 A2997 RMK A01 T02080028  RH  031%=      5-min Rain = 0
KDC1 270408Z 25004KT 21/03 A2997 RMK A01 T02080028  RH  030%=      5-min Rain = 0
KDC1 270409Z 26004KT 21/03 A2997 RMK A01 T02080029  RH  031%=      5-min Rain = 0
KDC1 270410Z 26004KT 21/03 A2997 RMK A01 T02080033  RH  031%=      5-min Rain = 0
KDC1 270411Z 26004KT 21/03 A2997 RMK A01 T02070034  RH  032%=      5-min Rain = 0
KDC1 270412Z 25004KT 21/03 A2997 RMK A01 T02060033  RH  032%=      5-min Rain = 0
KDC1 270413Z 24004KT 21/03 A2997 RMK A01 T02050033  RH  032%=      5-min Rain = 0
KDC1 270414Z 23003KT 21/03 A2997 RMK A01 T02050033  RH  032%=      5-min Rain = 0
KDC1 270415Z 23004KT 21/03 A2997 RMK A01 T02050034  RH  032%=      5-min Rain = 0
KDC1 270416Z 24004KT 20/03 A2997 RMK A01 T02040033  RH  032%=      5-min Rain = 0
KDC1 270417Z 24004KT 20/03 A2997 RMK A01 T02040033  RH  032%=      5-min Rain = 0
KDC1 270418Z 23004KT 20/03 A2997 RMK A01 T02020033  RH  033%=      5-min Rain = 0
KDC1 270419Z 23004KT 20/03 A2997 RMK A01 T02020031  RH  032%=      5-min Rain = 0
KDC1 270420Z 24004KT 20/03 A2997 RMK A01 T02020032  RH  033%=      5-min Rain = 0
KDC1 270421Z 23004KT 20/03 A2997 RMK A01 T02020034  RH  033%=      5-min Rain = 0
KDC1 270422Z 23004KT 20/04 A2997 RMK A01 T02010035  RH  033%=      5-min Rain = 0
KDC1 270423Z 24004KT 20/03 A2997 RMK A01 T02000033  RH  033%=      5-min Rain = 0
KDC1 270424Z 24004KT 20/03 A2997 RMK A01 T02000033  RH  033%=      5-min Rain = 0
KDC1 270425Z 23004KT 20/03 A2997 RMK A01 T02000033  RH  033%=      5-min Rain = 0
KDC1 270426Z 23003KT 20/03 A2997 RMK A01 T02000033  RH  033%=      5-min Rain = 0
KDC1 270427Z 24003KT 20/04 A2997 RMK A01 T01990035  RH  034%=      5-min Rain = 0
KDC1 270428Z 23003KT 20/03 A2997 RMK A01 T01990031  RH  033%=      5-min Rain = 0
KDC1 270429Z 24002KT 20/03 A2997 RMK A01 T02000031  RH  033%=      5-min Rain = 0
KDC1 270430Z 24003KT 20/03 A2997 RMK A01 T02000032  RH  033%=      5-min Rain = 0
KDC1 270431Z 23003KT 20/03 A2997 RMK A01 T02000031  RH  033%=      5-min Rain = 0
KDC1 270432Z 23002KT 20/03 A2997 RMK A01 T02000032  RH  033%=      5-min Rain = 0
KDC1 270433Z 23003KT 20/03 A2997 RMK A01 T02010032  RH  033%=      5-min Rain = 0
KDC1 270434Z 23003KT 20/03 A2997 RMK A01 T02000032  RH  033%=      5-min Rain = 0
KDC1 270435Z 24002KT 20/03 A2997 RMK A01 T02000032  RH  033%=      5-min Rain = 0
KDC1 270436Z 24002KT 20/03 A2997 RMK A01 T02000033  RH  033%=      5-min Rain = 0
KDC1 270437Z 24002KT 20/04 A2997 RMK A01 T02000035  RH  033%=      5-min Rain = 0
KDC1 270438Z 22002KT 20/04 A2997 RMK A01 T01990042  RH  035%=      5-min Rain = 0
KDC1 270439Z 23002KT 20/05 A2997 RMK A01 T01970045  RH  037%=      5-min Rain = 0
KDC1 270440Z 23003KT 20/05 A2997 RMK A01 T01950046  RH  037%=      5-min Rain = 0
KDC1 270441Z 22003KT 19/04 A2997 RMK A01 T01940041  RH  037%=      5-min Rain = 0
KDC1 270442Z 22002KT 19/04 A2997 RMK A01 T01930042  RH  037%=      5-min Rain = 0
KDC1 270443Z 22002KT 19/05 A2997 RMK A01 T01920045  RH  038%=      5-min Rain = 0
KDC1 270444Z 23003KT 19/04 A2997 RMK A01 T01920035  RH  035%=      5-min Rain = 0
KDC1 270445Z 23003KT 19/04 A2997 RMK A01 T01930043  RH  037%=      5-min Rain = 0
KDC1 270446Z 22003KT 19/04 A2997 RMK A01 T01930043  RH  037%=      5-min Rain = 0
KDC1 270447Z 21003KT 19/04 A2997 RMK A01 T01930037  RH  036%=      5-min Rain = 0
KDC1 270448Z 21004KT 20/03 A2997 RMK A01 T01950030  RH  034%=      5-min Rain = 0
KDC1 270449Z 21004KT 20/03 A2997 RMK A01 T01990029  RH  032%=      5-min Rain = 0
KDC1 270450Z 21004KT 20/03 A2997 RMK A01 T02010030  RH  032%=      5-min Rain = 0
KDC1 270451Z 20004KT 20/03 A2997 RMK A01 T02020028  RH  032%=      5-min Rain = 0
KDC1 270452Z 20002KT 20/03 A2997 RMK A01 T02030027  RH  031%=      5-min Rain = 0
KDC1 270453Z 19003KT 20/03 A2997 RMK A01 T02040029  RH  031%=      5-min Rain = 0
KDC1 270454Z 19002KT 20/03 A2997 RMK A01 T02040028  RH  031%=      5-min Rain = 0
KDC1 270455Z 19001KT 20/04 A2997 RMK A01 T02040035  RH  033%=      5-min Rain = 0
KDC1 270456Z 16002KT 20/04 A2997 RMK A01 T02010037  RH  034%=      5-min Rain = 0
KDC1 270457Z 15003KT 20/04 A2997 RMK A01 T01980036  RH  034%=      5-min Rain = 0
KDC1 270458Z 11003KT 20/04 A2997 RMK A01 T01970039  RH  035%=      5-min Rain = 0
KDC1 270459Z 09004KT 19/04 A2997 RMK A01 T01940044  RH  037%=      5-min Rain = 0

Page generated in 0.1334 seconds.